Observation data for Doole 3WNW on 05/25/2020      Previous  Date  Next       Current Mesonet Observations  Soil Data  Daily Summary Page  Observations in Plain Language
KDO2 250500Z 05010KT 18/17 A2985 RMK A01 T01770165  RH  092%=      5-min Rain = 0
KDO2 250501Z 05010KT 18/16 A2985 RMK A01 T01770164  RH  092%=      5-min Rain = 0
KDO2 250502Z 05011KT 18/16 A2985 RMK A01 T01770164  RH  092%=      5-min Rain = 0
KDO2 250503Z 05008KT 18/16 A2985 RMK A01 T01770164  RH  092%=      5-min Rain = 0
KDO2 250504Z 05008KT 18/17 A2985 RMK A01 T01770165  RH  092%=      5-min Rain = 0
KDO2 250505Z 05010KT 18/17 A2985 RMK A01 T01770165  RH  093%=      5-min Rain = 0
KDO2 250506Z 05010KT 18/17 A2985 RMK A01 T01770165  RH  092%=      5-min Rain = 0
KDO2 250507Z 05009KT 18/17 A2985 RMK A01 T01770165  RH  092%=      5-min Rain = 0
KDO2 250508Z 05009KT 18/17 A2985 RMK A01 T01770165  RH  093%=      5-min Rain = 0
KDO2 250509Z 05009KT 18/17 A2985 RMK A01 T01770165  RH  093%=      5-min Rain = 0
KDO2 250510Z 05010KT 18/17 A2985 RMK A01 T01770165  RH  093%=      5-min Rain = 0
KDO2 250511Z 05011KT 18/17 A2985 RMK A01 T01770166  RH  093%=      5-min Rain = 0
KDO2 250512Z 05010KT 18/17 A2985 RMK A01 T01770165  RH  093%=      5-min Rain = 0
KDO2 250513Z 05012KT 18/17 A2985 RMK A01 T01770165  RH  093%=      5-min Rain = 0
KDO2 250514Z 05010KT 18/16 A2985 RMK A01 T01760164  RH  093%=      5-min Rain = 0
KDO2 250515Z 06010KT 18/17 A2985 RMK A01 T01760165  RH  093%=      5-min Rain = 0
KDO2 250516Z 05011KT 18/17 A2984 RMK A01 T01770165  RH  093%=      5-min Rain = 0
KDO2 250517Z 05013KT 18/17 A2984 RMK A01 T01760165  RH  093%=      5-min Rain = 0.01
KDO2 250518Z 05012KT 18/16 A2984 RMK A01 T01760164  RH  093%=      5-min Rain = 0
KDO2 250519Z 05010KT 18/16 A2984 RMK A01 T01760164  RH  093%=      5-min Rain = 0
KDO2 250520Z 05013KT 18/17 A2984 RMK A01 T01760165  RH  093%=      5-min Rain = 0
KDO2 250521Z 05012KT 18/16 A2984 RMK A01 T01760164  RH  093%=      5-min Rain = 0
KDO2 250522Z 05011KT 18/17 A2984 RMK A01 T01760165  RH  093%=      5-min Rain = 0
KDO2 250523Z 05014KT 18/17 A2983 RMK A01 T01760165  RH  093%=      5-min Rain = 0
KDO2 250524Z 05013KT 18/17 A2983 RMK A01 T01760165  RH  093%=      5-min Rain = 0
KDO2 250525Z 05014KT 18/17 A2983 RMK A01 T01750165  RH  093%=      5-min Rain = 0
KDO2 250526Z 05012KT 18/17 A2983 RMK A01 T01750165  RH  094%=      5-min Rain = 0
KDO2 250527Z 05013KT 18/17 A2983 RMK A01 T01760165  RH  094%=      5-min Rain = 0
KDO2 250528Z 05013KT 18/17 A2983 RMK A01 T01750165  RH  094%=      5-min Rain = 0
KDO2 250529Z 05016KT 18/17 A2983 RMK A01 T01750165  RH  094%=      5-min Rain = 0
KDO2 250530Z 05015KT 18/16 A2983 RMK A01 T01750164  RH  093%=      5-min Rain = 0
KDO2 250531Z 05015KT 18/16 A2983 RMK A01 T01750164  RH  094%=      5-min Rain = 0
KDO2 250532Z 05013KT 18/16 A2983 RMK A01 T01750164  RH  094%=      5-min Rain = 0
KDO2 250533Z 05012KT 18/17 A2983 RMK A01 T01750165  RH  094%=      5-min Rain = 0
KDO2 250534Z 06011KT 18/17 A2983 RMK A01 T01750166  RH  094%=      5-min Rain = 0
KDO2 250535Z 06015KT 18/17 A2983 RMK A01 T01750165  RH  094%=      5-min Rain = 0
KDO2 250536Z 06014KT 17/17 A2983 RMK A01 T01740165  RH  094%=      5-min Rain = 0
KDO2 250537Z 06015KT 17/17 A2983 RMK A01 T01740165  RH  094%=      5-min Rain = 0
KDO2 250538Z 05015KT 17/17 A2983 RMK A01 T01740165  RH  094%=      5-min Rain = 0
KDO2 250539Z 05016KT 17/17 A2983 RMK A01 T01740165  RH  094%=      5-min Rain = 0
KDO2 250540Z 06014KT 17/17 A2983 RMK A01 T01740165  RH  094%=      5-min Rain = 0
KDO2 250541Z 05016KT 17/17 A2983 RMK A01 T01740165  RH  094%=      5-min Rain = 0
KDO2 250542Z 05016KT 17/17 A2983 RMK A01 T01740165  RH  094%=      5-min Rain = 0
KDO2 250543Z 05016KT 17/16 A2982 RMK A01 T01740164  RH  094%=      5-min Rain = 0
KDO2 250544Z 06017KT 17/16 A2982 RMK A01 T01740164  RH  094%=      5-min Rain = 0.01
KDO2 250545Z 06019KT 17/16 A2982 RMK A01 T01740164  RH  094%=      5-min Rain = 0
KDO2 250546Z 06018KT 17/16 A2982 RMK A01 T01740164  RH  094%=      5-min Rain = 0
KDO2 250547Z 06018KT 17/16 A2982 RMK A01 T01740164  RH  094%=      5-min Rain = 0
KDO2 250548Z 05018KT 17/16 A2982 RMK A01 T01740164  RH  094%=      5-min Rain = 0
KDO2 250549Z 05016KT 17/16 A2982 RMK A01 T01740164  RH  094%=      5-min Rain = 0
KDO2 250550Z 06015KT 17/16 A2982 RMK A01 T01740164  RH  094%=      5-min Rain = 0
KDO2 250551Z 05013KT 17/17 A2982 RMK A01 T01740165  RH  094%=      5-min Rain = 0
KDO2 250552Z 05012G17KT 17/17 A2982 RMK A01 T01740165  RH  095%=      5-min Rain = 0
KDO2 250553Z 05014KT 17/17 A2982 RMK A01 T01740165  RH  095%=      5-min Rain = 0
KDO2 250554Z 05013KT 17/17 A2982 RMK A01 T01740165  RH  095%=      5-min Rain = 0
KDO2 250555Z 06012KT 17/17 A2982 RMK A01 T01740165  RH  095%=      5-min Rain = 0
KDO2 250556Z 05015KT 17/17 A2982 RMK A01 T01740166  RH  095%=      5-min Rain = 0
KDO2 250557Z 05015KT 17/17 A2982 RMK A01 T01740165  RH  095%=      5-min Rain = 0
KDO2 250558Z 05014KT 17/16 A2982 RMK A01 T01730164  RH  094%=      5-min Rain = 0
KDO2 250559Z 05012KT 17/16 A2982 RMK A01 T01730164  RH  094%=      5-min Rain = 0
KDO2 250600Z 05013KT 17/16 A2982 RMK A01 T01730164  RH  094%=      5-min Rain = 0
KDO2 250601Z 05013KT 17/16 A2982 RMK A01 T01740164  RH  094%=      5-min Rain = 0
KDO2 250602Z 04013KT 17/16 A2982 RMK A01 T01740164  RH  094%=      5-min Rain = 0
KDO2 250603Z 04012KT 17/16 A2982 RMK A01 T01740164  RH  094%=      5-min Rain = 0
KDO2 250604Z 05010KT 17/16 A2982 RMK A01 T01740164  RH  094%=      5-min Rain = 0
KDO2 250605Z 05013KT 17/17 A2982 RMK A01 T01740165  RH  094%=      5-min Rain = 0
KDO2 250606Z 05012KT 17/16 A2982 RMK A01 T01740164  RH  094%=      5-min Rain = 0
KDO2 250607Z 04014KT 17/16 A2982 RMK A01 T01740164  RH  094%=      5-min Rain = 0
KDO2 250608Z 05013KT 17/16 A2982 RMK A01 T01740164  RH  094%=      5-min Rain = 0
KDO2 250609Z 05011KT 18/16 A2982 RMK A01 T01750164  RH  094%=      5-min Rain = 0
KDO2 250610Z 05011KT 18/16 A2981 RMK A01 T01750164  RH  094%=      5-min Rain = 0
KDO2 250611Z 05014KT 17/16 A2981 RMK A01 T01740164  RH  094%=      5-min Rain = 0
KDO2 250612Z 05013KT 17/16 A2981 RMK A01 T01740164  RH  094%=      5-min Rain = 0
KDO2 250613Z 06013KT 18/16 A298 RMK A01 T01750164  RH  094%=      5-min Rain = 0
KDO2 250614Z 06013KT 17/16 A298 RMK A01 T01740164  RH  094%=      5-min Rain = 0
KDO2 250615Z 06012KT 18/17 A298 RMK A01 T01750165  RH  094%=      5-min Rain = 0
KDO2 250616Z 06011KT 18/17 A298 RMK A01 T01750165  RH  094%=      5-min Rain = 0
KDO2 250617Z 05011KT 18/17 A298 RMK A01 T01750165  RH  094%=      5-min Rain = 0
KDO2 250618Z 05012KT 17/17 A298 RMK A01 T01740165  RH  094%=      5-min Rain = 0
KDO2 250619Z 05012KT 17/17 A2981 RMK A01 T01740165  RH  094%=      5-min Rain = 0
KDO2 250620Z 04013KT 17/17 A2981 RMK A01 T01740166  RH  095%=      5-min Rain = 0
KDO2 250621Z 04014KT 17/17 A2981 RMK A01 T01740165  RH  095%=      5-min Rain = 0
KDO2 250622Z 04014KT 17/17 A2981 RMK A01 T01740166  RH  095%=      5-min Rain = 0
KDO2 250623Z 04014KT 17/17 A2981 RMK A01 T01740166  RH  095%=      5-min Rain = 0
KDO2 250624Z 04014KT 17/17 A2981 RMK A01 T01740166  RH  095%=      5-min Rain = 0
KDO2 250625Z 05014KT 17/17 A2981 RMK A01 T01740166  RH  095%=      5-min Rain = 0
KDO2 250626Z 05014KT 18/17 A298 RMK A01 T01750166  RH  095%=      5-min Rain = 0
KDO2 250627Z 04012KT 18/17 A298 RMK A01 T01750166  RH  095%=      5-min Rain = 0
KDO2 250628Z 05011KT 18/17 A298 RMK A01 T01750166  RH  095%=      5-min Rain = 0
KDO2 250629Z 05015KT 18/17 A298 RMK A01 T01750166  RH  095%=      5-min Rain = 0
KDO2 250630Z 05015KT 18/17 A298 RMK A01 T01750166  RH  095%=      5-min Rain = 0
KDO2 250631Z 04014KT 18/17 A298 RMK A01 T01750166  RH  095%=      5-min Rain = 0
KDO2 250632Z 05014KT 18/17 A298 RMK A01 T01750166  RH  095%=      5-min Rain = 0
KDO2 250633Z 05012KT 18/17 A298 RMK A01 T01750166  RH  094%=      5-min Rain = 0
KDO2 250634Z 04013KT 18/17 A298 RMK A01 T01750166  RH  094%=      5-min Rain = 0
KDO2 250635Z 05009KT 18/17 A298 RMK A01 T01750166  RH  094%=      5-min Rain = 0
KDO2 250636Z 05010KT 18/17 A298 RMK A01 T01750166  RH  094%=      5-min Rain = 0
KDO2 250637Z 04008KT 18/17 A298 RMK A01 T01760167  RH  095%=      5-min Rain = 0
KDO2 250638Z 05010KT 18/17 A298 RMK A01 T01760167  RH  095%=      5-min Rain = 0
KDO2 250639Z 05009KT 18/17 A298 RMK A01 T01760167  RH  095%=      5-min Rain = 0
KDO2 250640Z 05010KT 18/17 A298 RMK A01 T01760167  RH  095%=      5-min Rain = 0
KDO2 250641Z 05011KT 18/17 A298 RMK A01 T01760166  RH  094%=      5-min Rain = 0
KDO2 250642Z 05010KT 18/17 A298 RMK A01 T01760166  RH  094%=      5-min Rain = 0
KDO2 250643Z 05010KT 18/17 A298 RMK A01 T01760166  RH  094%=      5-min Rain = 0
KDO2 250644Z 05011KT 18/17 A298 RMK A01 T01760166  RH  094%=      5-min Rain = 0
KDO2 250645Z 05011KT 18/17 A298 RMK A01 T01760166  RH  094%=      5-min Rain = 0
KDO2 250646Z 05010KT 18/17 A298 RMK A01 T01760166  RH  094%=      5-min Rain = 0
KDO2 250647Z 05011KT 18/17 A298 RMK A01 T01760166  RH  094%=      5-min Rain = 0
KDO2 250648Z 05013KT 18/17 A298 RMK A01 T01760166  RH  094%=      5-min Rain = 0
KDO2 250649Z 06012KT 18/17 A2979 RMK A01 T01760166  RH  094%=      5-min Rain = 0
KDO2 250650Z 06011KT 18/17 A2979 RMK A01 T01760166  RH  094%=      5-min Rain = 0
KDO2 250651Z 06013KT 18/17 A2979 RMK A01 T01760166  RH  094%=      5-min Rain = 0
KDO2 250652Z 06014KT 18/17 A2979 RMK A01 T01770166  RH  094%=      5-min Rain = 0
KDO2 250653Z 05012KT 18/17 A2979 RMK A01 T01760166  RH  093%=      5-min Rain = 0
KDO2 250654Z 06012KT 18/17 A2979 RMK A01 T01760166  RH  093%=      5-min Rain = 0
KDO2 250655Z 06013KT 18/17 A2978 RMK A01 T01760166  RH  094%=      5-min Rain = 0
KDO2 250656Z 05011KT 18/17 A2978 RMK A01 T01770166  RH  094%=      5-min Rain = 0
KDO2 250657Z 05012KT 18/17 A2978 RMK A01 T01760166  RH  094%=      5-min Rain = 0
KDO2 250658Z 05013KT 18/17 A2978 RMK A01 T01760166  RH  094%=      5-min Rain = 0
KDO2 250659Z 04014KT 18/17 A2978 RMK A01 T01760166  RH  094%=      5-min Rain = 0
KDO2 250700Z 05014KT 18/17 A2978 RMK A01 T01760166  RH  094%=      5-min Rain = 0
KDO2 250701Z 05016KT 18/17 A2978 RMK A01 T01770166  RH  093%=      5-min Rain = 0
KDO2 250702Z 05014KT 18/17 A2977 RMK A01 T01770166  RH  093%=      5-min Rain = 0
KDO2 250703Z 05015KT 18/17 A2977 RMK A01 T01770166  RH  093%=      5-min Rain = 0
KDO2 250704Z 06017KT 18/17 A2976 RMK A01 T01770166  RH  093%=      5-min Rain = 0
KDO2 250705Z 06018KT 18/17 A2976 RMK A01 T01770166  RH  093%=      5-min Rain = 0
KDO2 250706Z 06017KT 18/17 A2975 RMK A01 T01770166  RH  093%=      5-min Rain = 0
KDO2 250707Z 06017KT 18/17 A2975 RMK A01 T01770166  RH  093%=      5-min Rain = 0
KDO2 250708Z 06017KT 18/17 A2975 RMK A01 T01770166  RH  093%=      5-min Rain = 0
KDO2 250709Z 05017KT 18/17 A2975 RMK A01 T01770166  RH  093%=      5-min Rain = 0
KDO2 250710Z 05019KT 18/17 A2975 RMK A01 T01770166  RH  093%=      5-min Rain = 0
KDO2 250711Z 05019KT 18/17 A2975 RMK A01 T01770166  RH  093%=      5-min Rain = 0
KDO2 250712Z 05019KT 18/17 A2974 RMK A01 T01770166  RH  093%=      5-min Rain = 0
KDO2 250713Z 05017KT 18/17 A2974 RMK A01 T01770166  RH  093%=      5-min Rain = 0
KDO2 250714Z 05016KT 18/17 A2974 RMK A01 T01770166  RH  093%=      5-min Rain = 0
KDO2 250715Z 05019KT 18/17 A2974 RMK A01 T01770166  RH  094%=      5-min Rain = 0
KDO2 250716Z 05018KT 18/17 A2974 RMK A01 T01770166  RH  094%=      5-min Rain = 0
KDO2 250717Z 04020KT 18/17 A2974 RMK A01 T01770166  RH  093%=      5-min Rain = 0
KDO2 250718Z 04019KT 18/17 A2974 RMK A01 T01770166  RH  093%=      5-min Rain = 0
KDO2 250719Z 04016KT 18/17 A2974 RMK A01 T01770165  RH  093%=      5-min Rain = 0
KDO2 250720Z 05016G21KT 18/17 A2974 RMK A01 T01770166  RH  093%=      5-min Rain = 0
KDO2 250721Z 05013KT 18/17 A2974 RMK A01 T01760165  RH  093%=      5-min Rain = 0
KDO2 250722Z 05015KT 18/17 A2975 RMK A01 T01770166  RH  093%=      5-min Rain = 0
KDO2 250723Z 04014KT 18/17 A2975 RMK A01 T01760165  RH  093%=      5-min Rain = 0
KDO2 250724Z 04014KT 18/17 A2975 RMK A01 T01760165  RH  093%=      5-min Rain = 0
KDO2 250725Z 04017KT 18/17 A2976 RMK A01 T01760165  RH  093%=      5-min Rain = 0
KDO2 250726Z 03016KT 18/17 A2976 RMK A01 T01760165  RH  093%=      5-min Rain = 0
KDO2 250727Z 03014KT 18/17 A2976 RMK A01 T01760165  RH  093%=      5-min Rain = 0
KDO2 250728Z 03015KT 18/17 A2976 RMK A01 T01770165  RH  093%=      5-min Rain = 0
KDO2 250729Z 03013KT 18/17 A2976 RMK A01 T01770165  RH  092%=      5-min Rain = 0
KDO2 250730Z 02012KT 18/17 A2978 RMK A01 T01770165  RH  093%=      5-min Rain = 0
KDO2 250731Z 01011KT 18/17 A2979 RMK A01 T01770165  RH  093%=      5-min Rain = 0
KDO2 250732Z 34008KT 18/17 A298 RMK A01 T01770165  RH  093%=      5-min Rain = 0
KDO2 250733Z 31007KT 18/17 A2981 RMK A01 T01770165  RH  093%=      5-min Rain = 0
KDO2 250734Z 28009KT 18/17 A2982 RMK A01 T01770165  RH  093%=      5-min Rain = 0
KDO2 250735Z 28010KT 18/17 A2983 RMK A01 T01770165  RH  093%=      5-min Rain = 0
KDO2 250736Z 26012KT 18/17 A2983 RMK A01 T01770166  RH  093%=      5-min Rain = 0
KDO2 250737Z 26010KT 18/17 A2984 RMK A01 T01770166  RH  093%=      5-min Rain = 0
KDO2 250738Z 26010KT 18/17 A2984 RMK A01 T01780167  RH  093%=      5-min Rain = 0
KDO2 250739Z 26008KT 18/17 A2984 RMK A01 T01780167  RH  093%=      5-min Rain = 0
KDO2 250740Z 27007KT 18/17 A2984 RMK A01 T01780167  RH  093%=      5-min Rain = 0
KDO2 250741Z 29007KT 18/17 A2984 RMK A01 T01780166  RH  093%=      5-min Rain = 0
KDO2 250742Z 32007KT 18/17 A2984 RMK A01 T01780166  RH  093%=      5-min Rain = 0
KDO2 250743Z 33008KT 18/17 A2983 RMK A01 T01780165  RH  092%=      5-min Rain = 0
KDO2 250744Z 35010KT 18/17 A2983 RMK A01 T01780165  RH  092%=      5-min Rain = 0
KDO2 250745Z 01011KT 18/16 A2982 RMK A01 T01780163  RH  091%=      5-min Rain = 0
KDO2 250746Z 02008KT 18/16 A2982 RMK A01 T01790164  RH  091%=      5-min Rain = 0
KDO2 250747Z 03009KT 18/16 A2981 RMK A01 T01790164  RH  091%=      5-min Rain = 0
KDO2 250748Z 03010KT 18/16 A2981 RMK A01 T01790164  RH  091%=      5-min Rain = 0
KDO2 250749Z 02010KT 18/16 A2981 RMK A01 T01790163  RH  091%=      5-min Rain = 0
KDO2 250750Z 03007KT 18/16 A2981 RMK A01 T01790163  RH  090%=      5-min Rain = 0
KDO2 250751Z 05004KT 18/16 A2981 RMK A01 T01790163  RH  091%=      5-min Rain = 0
KDO2 250752Z 02004KT 18/16 A2982 RMK A01 T01790164  RH  091%=      5-min Rain = 0
KDO2 250753Z 35004KT 18/17 A2982 RMK A01 T01790165  RH  091%=      5-min Rain = 0
KDO2 250754Z 33003KT 18/16 A2982 RMK A01 T01790164  RH  091%=      5-min Rain = 0
KDO2 250755Z 30003KT 18/16 A2982 RMK A01 T01790164  RH  091%=      5-min Rain = 0
KDO2 250756Z 28003KT 18/17 A2982 RMK A01 T01790165  RH  091%=      5-min Rain = 0
KDO2 250757Z 28002KT 18/16 A2982 RMK A01 T01790164  RH  091%=      5-min Rain = 0
KDO2 250758Z 25002KT 18/16 A2981 RMK A01 T01780163  RH  091%=      5-min Rain = 0
KDO2 250759Z 32001KT 18/16 A2981 RMK A01 T01780162  RH  090%=      5-min Rain = 0
KDO2 250800Z 06002KT 18/16 A298 RMK A01 T01780162  RH  090%=      5-min Rain = 0
KDO2 250801Z 05003KT 18/16 A298 RMK A01 T01790163  RH  090%=      5-min Rain = 0
KDO2 250802Z 03006KT 18/16 A298 RMK A01 T01790163  RH  090%=      5-min Rain = 0
KDO2 250803Z 03009KT 18/16 A298 RMK A01 T01790162  RH  090%=      5-min Rain = 0
KDO2 250804Z 04008KT 18/16 A2979 RMK A01 T01790162  RH  090%=      5-min Rain = 0
KDO2 250805Z 05010KT 18/16 A2979 RMK A01 T01790163  RH  090%=      5-min Rain = 0
KDO2 250806Z 06010KT 18/16 A2978 RMK A01 T01790163  RH  090%=      5-min Rain = 0
KDO2 250807Z 06010KT 18/16 A2978 RMK A01 T01790163  RH  090%=      5-min Rain = 0
KDO2 250808Z 05008KT 18/16 A2978 RMK A01 T01790162  RH  090%=      5-min Rain = 0
KDO2 250809Z 04008KT 18/16 A2978 RMK A01 T01790162  RH  090%=      5-min Rain = 0
KDO2 250810Z 03008KT 18/16 A2979 RMK A01 T01790162  RH  090%=      5-min Rain = 0
KDO2 250811Z 03009KT 18/16 A2979 RMK A01 T01790162  RH  090%=      5-min Rain = 0
KDO2 250812Z 03008KT 18/16 A2979 RMK A01 T01790162  RH  090%=      5-min Rain = 0
KDO2 250813Z 03007KT 18/16 A2979 RMK A01 T01790161  RH  090%=      5-min Rain = 0
KDO2 250814Z 04005KT 18/16 A2979 RMK A01 T01790161  RH  089%=      5-min Rain = 0
KDO2 250815Z 04005KT 18/16 A2979 RMK A01 T01790162  RH  090%=      5-min Rain = 0
KDO2 250816Z 05005KT 18/16 A2979 RMK A01 T01790161  RH  089%=      5-min Rain = 0
KDO2 250817Z 05003KT 18/16 A2979 RMK A01 T01790162  RH  089%=      5-min Rain = 0
KDO2 250818Z 07003KT 18/16 A2978 RMK A01 T01790162  RH  090%=      5-min Rain = 0
KDO2 250819Z 11002KT 18/16 A2978 RMK A01 T01790162  RH  090%=      5-min Rain = 0
KDO2 250820Z 08002KT 18/16 A2978 RMK A01 T01790162  RH  090%=      5-min Rain = 0
KDO2 250821Z 12002KT 18/16 A2978 RMK A01 T01790162  RH  090%=      5-min Rain = 0
KDO2 250822Z 11003KT 18/16 A2978 RMK A01 T01790163  RH  090%=      5-min Rain = 0
KDO2 250823Z 08004KT 18/16 A2978 RMK A01 T01790162  RH  090%=      5-min Rain = 0
KDO2 250824Z 06003KT 18/16 A2978 RMK A01 T01790162  RH  090%=      5-min Rain = 0
KDO2 250825Z 04003KT 18/16 A2979 RMK A01 T01780161  RH  090%=      5-min Rain = 0
KDO2 250826Z 03002KT 18/16 A2979 RMK A01 T01780160  RH  089%=      5-min Rain = 0
KDO2 250827Z 04005KT 18/16 A2979 RMK A01 T01780159  RH  089%=      5-min Rain = 0
KDO2 250828Z 03004KT 18/16 A298 RMK A01 T01780158  RH  088%=      5-min Rain = 0
KDO2 250829Z 02004KT 18/16 A298 RMK A01 T01790159  RH  088%=      5-min Rain = 0
KDO2 250830Z 00004KT 18/16 A298 RMK A01 T01800160  RH  088%=      5-min Rain = 0
KDO2 250831Z 01004KT 18/16 A298 RMK A01 T01800161  RH  088%=      5-min Rain = 0
KDO2 250832Z 01003KT 18/16 A298 RMK A01 T01800161  RH  089%=      5-min Rain = 0
KDO2 250833Z 36003KT 18/16 A298 RMK A01 T01800160  RH  089%=      5-min Rain = 0
KDO2 250834Z 36004KT 18/16 A298 RMK A01 T01790160  RH  088%=      5-min Rain = 0
KDO2 250835Z 35004KT 18/16 A298 RMK A01 T01790159  RH  088%=      5-min Rain = 0
KDO2 250836Z 35004KT 18/16 A2981 RMK A01 T01790160  RH  088%=      5-min Rain = 0
KDO2 250837Z 01004KT 18/16 A2981 RMK A01 T01790159  RH  088%=      5-min Rain = 0
KDO2 250838Z 01004KT 18/16 A2981 RMK A01 T01790158  RH  087%=      5-min Rain = 0
KDO2 250839Z 02004KT 18/16 A2981 RMK A01 T01790157  RH  087%=      5-min Rain = 0
KDO2 250840Z 02005KT 18/16 A2981 RMK A01 T01800158  RH  087%=      5-min Rain = 0
KDO2 250841Z 04006KT 18/16 A2981 RMK A01 T01800157  RH  086%=      5-min Rain = 0
KDO2 250842Z 03007KT 18/16 A2982 RMK A01 T01800156  RH  086%=      5-min Rain = 0
KDO2 250843Z 02007KT 18/16 A2982 RMK A01 T01810156  RH  085%=      5-min Rain = 0
KDO2 250844Z 02007KT 18/16 A2982 RMK A01 T01810157  RH  086%=      5-min Rain = 0
KDO2 250845Z 02006KT 18/16 A2982 RMK A01 T01810157  RH  086%=      5-min Rain = 0
KDO2 250846Z 02005KT 18/16 A2982 RMK A01 T01810158  RH  086%=      5-min Rain = 0
KDO2 250847Z 01004KT 18/16 A2982 RMK A01 T01800158  RH  087%=      5-min Rain = 0
KDO2 250848Z 01007KT 18/16 A2982 RMK A01 T01800157  RH  086%=      5-min Rain = 0
KDO2 250849Z 02007KT 18/15 A2982 RMK A01 T01800153  RH  084%=      5-min Rain = 0
KDO2 250850Z 02007KT 18/15 A2982 RMK A01 T01810154  RH  084%=      5-min Rain = 0
KDO2 250851Z 01009KT 18/15 A2982 RMK A01 T01820154  RH  084%=      5-min Rain = 0
KDO2 250852Z 02008KT 18/15 A2982 RMK A01 T01820153  RH  083%=      5-min Rain = 0
KDO2 250853Z 03006KT 18/16 A2981 RMK A01 T01820155  RH  084%=      5-min Rain = 0
KDO2 250854Z 03007KT 18/16 A2981 RMK A01 T01820157  RH  085%=      5-min Rain = 0
KDO2 250855Z 03007KT 18/16 A2981 RMK A01 T01810155  RH  085%=      5-min Rain = 0
KDO2 250856Z 04006KT 18/16 A298 RMK A01 T01810155  RH  085%=      5-min Rain = 0
KDO2 250857Z 04006KT 18/16 A298 RMK A01 T01810155  RH  085%=      5-min Rain = 0
KDO2 250858Z 05005KT 18/16 A298 RMK A01 T01810156  RH  085%=      5-min Rain = 0
KDO2 250859Z 05005KT 18/16 A298 RMK A01 T01810157  RH  086%=      5-min Rain = 0
KDO2 250900Z 04005KT 18/16 A2979 RMK A01 T01800156  RH  086%=      5-min Rain = 0
KDO2 250901Z 04006KT 18/16 A2979 RMK A01 T01800156  RH  086%=      5-min Rain = 0
KDO2 250902Z 05005KT 18/16 A2979 RMK A01 T01800156  RH  086%=      5-min Rain = 0
KDO2 250903Z 03005KT 18/16 A2979 RMK A01 T01800155  RH  086%=      5-min Rain = 0
KDO2 250904Z 03006KT 18/15 A2979 RMK A01 T01800154  RH  085%=      5-min Rain = 0
KDO2 250905Z 03004KT 18/15 A2979 RMK A01 T01800149  RH  082%=      5-min Rain = 0
KDO2 250906Z 02004KT 18/15 A2979 RMK A01 T01820148  RH  081%=      5-min Rain = 0
KDO2 250907Z 05003KT 18/15 A2979 RMK A01 T01830149  RH  081%=      5-min Rain = 0
KDO2 250908Z 08003KT 18/15 A2978 RMK A01 T01840150  RH  081%=      5-min Rain = 0
KDO2 250909Z 08003KT 18/15 A2978 RMK A01 T01840152  RH  081%=      5-min Rain = 0
KDO2 250910Z 07004KT 18/15 A2978 RMK A01 T01840151  RH  081%=      5-min Rain = 0
KDO2 250911Z 07004KT 18/15 A2978 RMK A01 T01830150  RH  081%=      5-min Rain = 0
KDO2 250912Z 09003KT 18/15 A2978 RMK A01 T01830152  RH  082%=      5-min Rain = 0
KDO2 250913Z 09003KT 18/15 A2978 RMK A01 T01830154  RH  083%=      5-min Rain = 0
KDO2 250914Z 08003KT 18/15 A2978 RMK A01 T01820153  RH  083%=      5-min Rain = 0
KDO2 250915Z 05004KT 18/15 A2978 RMK A01 T01820153  RH  083%=      5-min Rain = 0
KDO2 250916Z 05004KT 18/15 A2978 RMK A01 T01820153  RH  083%=      5-min Rain = 0
KDO2 250917Z 05006KT 18/15 A2978 RMK A01 T01820154  RH  084%=      5-min Rain = 0
KDO2 250918Z 06006KT 18/15 A2978 RMK A01 T01810154  RH  084%=      5-min Rain = 0
KDO2 250919Z 06005KT 18/15 A2978 RMK A01 T01810154  RH  084%=      5-min Rain = 0
KDO2 250920Z 06005KT 18/16 A2978 RMK A01 T01800156  RH  085%=      5-min Rain = 0
KDO2 250921Z 08005KT 18/16 A2978 RMK A01 T01800156  RH  086%=      5-min Rain = 0
KDO2 250922Z 09005KT 18/16 A2977 RMK A01 T01790155  RH  086%=      5-min Rain = 0
KDO2 250923Z 09005KT 18/16 A2977 RMK A01 T01780156  RH  087%=      5-min Rain = 0
KDO2 250924Z 08005KT 18/16 A2977 RMK A01 T01780156  RH  087%=      5-min Rain = 0
KDO2 250925Z 10004KT 18/16 A2977 RMK A01 T01780156  RH  087%=      5-min Rain = 0
KDO2 250926Z 10004KT 18/16 A2977 RMK A01 T01780156  RH  087%=      5-min Rain = 0
KDO2 250927Z 09004KT 18/16 A2977 RMK A01 T01780156  RH  087%=      5-min Rain = 0
KDO2 250928Z 10004KT 18/16 A2977 RMK A01 T01780156  RH  087%=      5-min Rain = 0
KDO2 250929Z 11004KT 18/16 A2977 RMK A01 T01780156  RH  087%=      5-min Rain = 0
KDO2 250930Z 10004KT 18/16 A2977 RMK A01 T01780157  RH  088%=      5-min Rain = 0
KDO2 250931Z 10004KT 18/16 A2977 RMK A01 T01780157  RH  088%=      5-min Rain = 0
KDO2 250932Z 10004KT 18/16 A2977 RMK A01 T01770157  RH  088%=      5-min Rain = 0
KDO2 250933Z 10005KT 18/16 A2976 RMK A01 T01770157  RH  088%=      5-min Rain = 0
KDO2 250934Z 09005KT 18/16 A2976 RMK A01 T01770156  RH  087%=      5-min Rain = 0
KDO2 250935Z 08006KT 18/16 A2976 RMK A01 T01770155  RH  087%=      5-min Rain = 0
KDO2 250936Z 08005KT 18/16 A2976 RMK A01 T01770155  RH  087%=      5-min Rain = 0
KDO2 250937Z 09005KT 18/16 A2976 RMK A01 T01770155  RH  087%=      5-min Rain = 0
KDO2 250938Z 09005KT 18/16 A2976 RMK A01 T01780156  RH  087%=      5-min Rain = 0
KDO2 250939Z 11005KT 18/16 A2976 RMK A01 T01770156  RH  087%=      5-min Rain = 0
KDO2 250940Z 12004KT 18/16 A2976 RMK A01 T01770157  RH  088%=      5-min Rain = 0
KDO2 250941Z 14004KT 18/16 A2976 RMK A01 T01770157  RH  088%=      5-min Rain = 0
KDO2 250942Z 14005KT 18/16 A2976 RMK A01 T01770158  RH  088%=      5-min Rain = 0
KDO2 250943Z 16005KT 18/16 A2976 RMK A01 T01770159  RH  089%=      5-min Rain = 0
KDO2 250944Z 16006KT 18/16 A2976 RMK A01 T01760159  RH  090%=      5-min Rain = 0
KDO2 250945Z 17006KT 18/16 A2976 RMK A01 T01760159  RH  090%=      5-min Rain = 0
KDO2 250946Z 17006KT 18/16 A2976 RMK A01 T01750159  RH  090%=      5-min Rain = 0
KDO2 250947Z 17006KT 18/16 A2975 RMK A01 T01750159  RH  090%=      5-min Rain = 0
KDO2 250948Z 17007KT 17/16 A2975 RMK A01 T01740159  RH  091%=      5-min Rain = 0
KDO2 250949Z 17007KT 17/16 A2975 RMK A01 T01740158  RH  091%=      5-min Rain = 0
KDO2 250950Z 17008KT 17/16 A2975 RMK A01 T01740158  RH  090%=      5-min Rain = 0
KDO2 250951Z 17008KT 17/16 A2974 RMK A01 T01740158  RH  090%=      5-min Rain = 0
KDO2 250952Z 17007KT 17/16 A2974 RMK A01 T01740157  RH  090%=      5-min Rain = 0
KDO2 250953Z 17007KT 17/16 A2974 RMK A01 T01740158  RH  090%=      5-min Rain = 0
KDO2 250954Z 16007KT 17/16 A2974 RMK A01 T01740158  RH  090%=      5-min Rain = 0
KDO2 250955Z 16007KT 17/16 A2974 RMK A01 T01740158  RH  090%=      5-min Rain = 0
KDO2 250956Z 16007KT 17/16 A2974 RMK A01 T01740158  RH  091%=      5-min Rain = 0
KDO2 250957Z 16008KT 17/16 A2974 RMK A01 T01740158  RH  090%=      5-min Rain = 0
KDO2 250958Z 16008KT 17/16 A2974 RMK A01 T01730157  RH  090%=      5-min Rain = 0
KDO2 250959Z 16008KT 17/16 A2974 RMK A01 T01730157  RH  090%=      5-min Rain = 0
KDO2 251000Z 16008KT 17/16 A2974 RMK A01 T01730157  RH  090%=      5-min Rain = 0
KDO2 251001Z 16008KT 17/16 A2974 RMK A01 T01730157  RH  090%=      5-min Rain = 0
KDO2 251002Z 15008KT 17/16 A2974 RMK A01 T01730157  RH  090%=      5-min Rain = 0
KDO2 251003Z 15007KT 17/16 A2974 RMK A01 T01740156  RH  089%=      5-min Rain = 0
KDO2 251004Z 15008KT 17/16 A2974 RMK A01 T01730156  RH  089%=      5-min Rain = 0
KDO2 251005Z 16008KT 17/16 A2974 RMK A01 T01740156  RH  089%=      5-min Rain = 0
KDO2 251006Z 16008KT 17/16 A2974 RMK A01 T01740155  RH  089%=      5-min Rain = 0
KDO2 251007Z 17008KT 17/16 A2974 RMK A01 T01740156  RH  089%=      5-min Rain = 0
KDO2 251008Z 17009KT 17/16 A2974 RMK A01 T01740157  RH  090%=      5-min Rain = 0
KDO2 251009Z 17009KT 17/16 A2974 RMK A01 T01740157  RH  090%=      5-min Rain = 0
KDO2 251010Z 17009KT 17/16 A2974 RMK A01 T01740157  RH  090%=      5-min Rain = 0
KDO2 251011Z 17009KT 17/16 A2974 RMK A01 T01730156  RH  090%=      5-min Rain = 0
KDO2 251012Z 17009KT 17/16 A2974 RMK A01 T01730156  RH  089%=      5-min Rain = 0
KDO2 251013Z 18009KT 17/16 A2974 RMK A01 T01730156  RH  090%=      5-min Rain = 0
KDO2 251014Z 18009KT 17/16 A2974 RMK A01 T01730156  RH  090%=      5-min Rain = 0
KDO2 251015Z 19009KT 17/16 A2974 RMK A01 T01730156  RH  090%=      5-min Rain = 0
KDO2 251016Z 19009KT 17/16 A2975 RMK A01 T01730157  RH  090%=      5-min Rain = 0
KDO2 251017Z 19009KT 17/16 A2975 RMK A01 T01730157  RH  090%=      5-min Rain = 0
KDO2 251018Z 19008KT 17/16 A2975 RMK A01 T01740158  RH  091%=      5-min Rain = 0
KDO2 251019Z 18008KT 17/16 A2975 RMK A01 T01740158  RH  091%=      5-min Rain = 0
KDO2 251020Z 18007KT 17/16 A2975 RMK A01 T01740159  RH  091%=      5-min Rain = 0
KDO2 251021Z 18007KT 17/16 A2975 RMK A01 T01740158  RH  091%=      5-min Rain = 0
KDO2 251022Z 18007KT 17/16 A2975 RMK A01 T01740158  RH  091%=      5-min Rain = 0
KDO2 251023Z 18007KT 17/16 A2975 RMK A01 T01740158  RH  090%=      5-min Rain = 0
KDO2 251024Z 19009KT 17/16 A2975 RMK A01 T01740157  RH  090%=      5-min Rain = 0
KDO2 251025Z 19009KT 17/16 A2975 RMK A01 T01740157  RH  090%=      5-min Rain = 0
KDO2 251026Z 19009KT 17/16 A2975 RMK A01 T01740157  RH  089%=      5-min Rain = 0
KDO2 251027Z 19010KT 17/16 A2974 RMK A01 T01740156  RH  089%=      5-min Rain = 0
KDO2 251028Z 19009KT 17/16 A2974 RMK A01 T01740156  RH  089%=      5-min Rain = 0
KDO2 251029Z 19009KT 17/16 A2974 RMK A01 T01740156  RH  089%=      5-min Rain = 0
KDO2 251030Z 20009KT 17/16 A2974 RMK A01 T01740156  RH  089%=      5-min Rain = 0
KDO2 251031Z 20009KT 17/16 A2974 RMK A01 T01740156  RH  089%=      5-min Rain = 0
KDO2 251032Z 20009KT 17/16 A2974 RMK A01 T01740156  RH  090%=      5-min Rain = 0
KDO2 251033Z 21009KT 17/16 A2974 RMK A01 T01730157  RH  090%=      5-min Rain = 0
KDO2 251034Z 20008KT 17/16 A2974 RMK A01 T01730157  RH  090%=      5-min Rain = 0
KDO2 251035Z 20008KT 17/16 A2974 RMK A01 T01730157  RH  091%=      5-min Rain = 0
KDO2 251036Z 20008KT 17/16 A2974 RMK A01 T01720157  RH  091%=      5-min Rain = 0
KDO2 251037Z 20007KT 17/16 A2974 RMK A01 T01720157  RH  091%=      5-min Rain = 0
KDO2 251038Z 20006KT 17/16 A2974 RMK A01 T01720157  RH  091%=      5-min Rain = 0
KDO2 251039Z 20006KT 17/16 A2974 RMK A01 T01720157  RH  091%=      5-min Rain = 0
KDO2 251040Z 21007KT 17/16 A2974 RMK A01 T01720157  RH  091%=      5-min Rain = 0
KDO2 251041Z 21007KT 17/16 A2974 RMK A01 T01720157  RH  091%=      5-min Rain = 0
KDO2 251042Z 21008KT 17/16 A2974 RMK A01 T01710157  RH  091%=      5-min Rain = 0
KDO2 251043Z 21009KT 17/16 A2974 RMK A01 T01720157  RH  091%=      5-min Rain = 0
KDO2 251044Z 22009KT 17/16 A2974 RMK A01 T01710157  RH  091%=      5-min Rain = 0
KDO2 251045Z 22009KT 17/16 A2974 RMK A01 T01710157  RH  091%=      5-min Rain = 0
KDO2 251046Z 22008KT 17/16 A2975 RMK A01 T01710157  RH  091%=      5-min Rain = 0
KDO2 251047Z 22007KT 17/16 A2975 RMK A01 T01710156  RH  091%=      5-min Rain = 0
KDO2 251048Z 21007KT 17/16 A2975 RMK A01 T01710156  RH  091%=      5-min Rain = 0
KDO2 251049Z 22007KT 17/16 A2975 RMK A01 T01710156  RH  091%=      5-min Rain = 0
KDO2 251050Z 22007KT 17/16 A2975 RMK A01 T01710156  RH  091%=      5-min Rain = 0
KDO2 251051Z 22008KT 17/16 A2975 RMK A01 T01710156  RH  091%=      5-min Rain = 0
KDO2 251052Z 22005KT 17/16 A2975 RMK A01 T01710156  RH  091%=      5-min Rain = 0
KDO2 251053Z 22006KT 17/16 A2975 RMK A01 T01710156  RH  091%=      5-min Rain = 0
KDO2 251054Z 22007KT 17/16 A2975 RMK A01 T01710156  RH  091%=      5-min Rain = 0
KDO2 251055Z 22007KT 17/16 A2975 RMK A01 T01710156  RH  091%=      5-min Rain = 0
KDO2 251056Z 22007KT 17/16 A2975 RMK A01 T01710156  RH  091%=      5-min Rain = 0
KDO2 251057Z 22006KT 17/16 A2975 RMK A01 T01710156  RH  091%=      5-min Rain = 0
KDO2 251058Z 22007KT 17/16 A2975 RMK A01 T01710156  RH  091%=      5-min Rain = 0
KDO2 251059Z 22006KT 17/16 A2975 RMK A01 T01710156  RH  091%=      5-min Rain = 0
KDO2 251100Z 22006KT 17/16 A2975 RMK A01 T01710157  RH  091%=      5-min Rain = 0
KDO2 251101Z 22006KT 17/16 A2975 RMK A01 T01710157  RH  091%=      5-min Rain = 0
KDO2 251102Z 22005KT 17/16 A2975 RMK A01 T01710157  RH  091%=      5-min Rain = 0
KDO2 251103Z 23004KT 17/16 A2975 RMK A01 T01710157  RH  092%=      5-min Rain = 0
KDO2 251104Z 23005KT 17/16 A2975 RMK A01 T01710157  RH  092%=      5-min Rain = 0
KDO2 251105Z 23004KT 17/16 A2975 RMK A01 T01710157  RH  092%=      5-min Rain = 0
KDO2 251106Z 24004KT 17/16 A2975 RMK A01 T01710158  RH  092%=      5-min Rain = 0
KDO2 251107Z 24005KT 17/16 A2975 RMK A01 T01710158  RH  092%=      5-min Rain = 0
KDO2 251108Z 24005KT 17/16 A2975 RMK A01 T01710157  RH  092%=      5-min Rain = 0
KDO2 251109Z 24006KT 17/16 A2974 RMK A01 T01710157  RH  092%=      5-min Rain = 0
KDO2 251110Z 24006KT 17/16 A2974 RMK A01 T01700157  RH  092%=      5-min Rain = 0
KDO2 251111Z 24006KT 17/16 A2974 RMK A01 T01700157  RH  092%=      5-min Rain = 0
KDO2 251112Z 23006KT 17/16 A2974 RMK A01 T01700158  RH  092%=      5-min Rain = 0
KDO2 251113Z 23006KT 17/16 A2974 RMK A01 T01710158  RH  092%=      5-min Rain = 0
KDO2 251114Z 23006KT 17/16 A2974 RMK A01 T01700158  RH  092%=      5-min Rain = 0
KDO2 251115Z 23006KT 17/16 A2974 RMK A01 T01700158  RH  092%=      5-min Rain = 0
KDO2 251116Z 23006KT 17/16 A2974 RMK A01 T01700158  RH  092%=      5-min Rain = 0
KDO2 251117Z 23008KT 17/16 A2974 RMK A01 T01700158  RH  092%=      5-min Rain = 0
KDO2 251118Z 23007KT 17/16 A2974 RMK A01 T01700158  RH  092%=      5-min Rain = 0
KDO2 251119Z 23008KT 17/16 A2974 RMK A01 T01700158  RH  093%=      5-min Rain = 0
KDO2 251120Z 23008KT 17/16 A2973 RMK A01 T01700157  RH  092%=      5-min Rain = 0
KDO2 251121Z 23006KT 17/16 A2973 RMK A01 T01690157  RH  092%=      5-min Rain = 0
KDO2 251122Z 23007KT 17/16 A2973 RMK A01 T01700157  RH  093%=      5-min Rain = 0
KDO2 251123Z 23007KT 17/16 A2973 RMK A01 T01690157  RH  093%=      5-min Rain = 0
KDO2 251124Z 23006KT 17/16 A2974 RMK A01 T01700158  RH  093%=      5-min Rain = 0
KDO2 251125Z 23006KT 17/16 A2974 RMK A01 T01700158  RH  093%=      5-min Rain = 0
KDO2 251126Z 23005KT 17/16 A2974 RMK A01 T01700158  RH  093%=      5-min Rain = 0
KDO2 251127Z 24005KT 17/16 A2974 RMK A01 T01700158  RH  093%=      5-min Rain = 0
KDO2 251128Z 25004KT 17/16 A2974 RMK A01 T01700158  RH  093%=      5-min Rain = 0
KDO2 251129Z 26004KT 17/16 A2974 RMK A01 T01700157  RH  092%=      5-min Rain = 0
KDO2 251130Z 27003KT 17/16 A2974 RMK A01 T01700157  RH  092%=      5-min Rain = 0
KDO2 251131Z 28003KT 17/16 A2974 RMK A01 T01690157  RH  092%=      5-min Rain = 0
KDO2 251132Z 28003KT 17/16 A2974 RMK A01 T01690157  RH  092%=      5-min Rain = 0
KDO2 251133Z 30003KT 17/16 A2974 RMK A01 T01690157  RH  093%=      5-min Rain = 0
KDO2 251134Z 28003KT 17/16 A2975 RMK A01 T01690157  RH  093%=      5-min Rain = 0
KDO2 251135Z 28003KT 17/16 A2975 RMK A01 T01690157  RH  093%=      5-min Rain = 0
KDO2 251136Z 28004KT 17/16 A2975 RMK A01 T01680156  RH  093%=      5-min Rain = 0
KDO2 251137Z 28003KT 17/16 A2975 RMK A01 T01680157  RH  093%=      5-min Rain = 0
KDO2 251138Z 28003KT 17/16 A2975 RMK A01 T01680157  RH  093%=      5-min Rain = 0
KDO2 251139Z 28003KT 17/16 A2975 RMK A01 T01680156  RH  093%=      5-min Rain = 0
KDO2 251140Z 27004KT 17/16 A2975 RMK A01 T01680156  RH  093%=      5-min Rain = 0
KDO2 251141Z 27003KT 17/16 A2975 RMK A01 T01680156  RH  093%=      5-min Rain = 0
KDO2 251142Z 27003KT 17/16 A2975 RMK A01 T01670156  RH  093%=      5-min Rain = 0
KDO2 251143Z 28003KT 17/16 A2975 RMK A01 T01670156  RH  093%=      5-min Rain = 0
KDO2 251144Z 28003KT 17/16 A2975 RMK A01 T01670156  RH  094%=      5-min Rain = 0
KDO2 251145Z 29002KT 17/16 A2975 RMK A01 T01660156  RH  094%=      5-min Rain = 0
KDO2 251146Z 30003KT 17/16 A2975 RMK A01 T01660157  RH  094%=      5-min Rain = 0
KDO2 251147Z 30002KT 17/16 A2975 RMK A01 T01660156  RH  094%=      5-min Rain = 0
KDO2 251148Z 32003KT 17/16 A2976 RMK A01 T01660157  RH  094%=      5-min Rain = 0
KDO2 251149Z 34003KT 17/16 A2976 RMK A01 T01660157  RH  094%=      5-min Rain = 0
KDO2 251150Z 35004KT 17/16 A2976 RMK A01 T01660157  RH  094%=      5-min Rain = 0
KDO2 251151Z 35004KT 17/16 A2976 RMK A01 T01660157  RH  094%=      5-min Rain = 0
KDO2 251152Z 35005KT 17/16 A2976 RMK A01 T01660157  RH  094%=      5-min Rain = 0
KDO2 251153Z 35006KT 17/16 A2977 RMK A01 T01660157  RH  094%=      5-min Rain = 0
KDO2 251154Z 35006KT 17/16 A2977 RMK A01 T01660157  RH  094%=      5-min Rain = 0
KDO2 251155Z 35007KT 17/16 A2977 RMK A01 T01660157  RH  094%=      5-min Rain = 0
KDO2 251156Z 36007KT 17/16 A2977 RMK A01 T01660157  RH  095%=      5-min Rain = 0
KDO2 251157Z 00007KT 17/16 A2977 RMK A01 T01660157  RH  095%=      5-min Rain = 0
KDO2 251158Z 00008KT 17/16 A2978 RMK A01 T01650157  RH  095%=      5-min Rain = 0
KDO2 251159Z 01008KT 17/16 A2978 RMK A01 T01650157  RH  095%=      5-min Rain = 0
KDO2 251200Z 01008KT 17/16 A2978 RMK A01 T01650157  RH  095%=      5-min Rain = 0
KDO2 251201Z 00009KT 17/16 A2978 RMK A01 T01650157  RH  095%=      5-min Rain = 0
KDO2 251202Z 00009KT 17/16 A2978 RMK A01 T01650157  RH  095%=      5-min Rain = 0
KDO2 251203Z 00008KT 17/16 A2978 RMK A01 T01650157  RH  095%=      5-min Rain = 0
KDO2 251204Z 00008KT 16/16 A2978 RMK A01 T01640157  RH  095%=      5-min Rain = 0
KDO2 251205Z 36008KT 17/16 A2979 RMK A01 T01650157  RH  095%=      5-min Rain = 0
KDO2 251206Z 36007KT 17/16 A2979 RMK A01 T01650157  RH  095%=      5-min Rain = 0
KDO2 251207Z 36007KT 17/16 A2979 RMK A01 T01650157  RH  095%=      5-min Rain = 0
KDO2 251208Z 00008KT 17/16 A2979 RMK A01 T01650157  RH  095%=      5-min Rain = 0
KDO2 251209Z 00008KT 17/16 A2979 RMK A01 T01650157  RH  095%=      5-min Rain = 0
KDO2 251210Z 00008KT 17/16 A2979 RMK A01 T01650157  RH  095%=      5-min Rain = 0
KDO2 251211Z 00008KT 17/16 A2979 RMK A01 T01650158  RH  095%=      5-min Rain = 0
KDO2 251212Z 01008KT 17/16 A2979 RMK A01 T01650157  RH  095%=      5-min Rain = 0
KDO2 251213Z 01008KT 17/16 A2979 RMK A01 T01660157  RH  095%=      5-min Rain = 0
KDO2 251214Z 01008KT 17/16 A2979 RMK A01 T01660157  RH  095%=      5-min Rain = 0
KDO2 251215Z 01008KT 17/16 A2979 RMK A01 T01660157  RH  095%=      5-min Rain = 0
KDO2 251216Z 01008KT 17/16 A2979 RMK A01 T01660157  RH  095%=      5-min Rain = 0
KDO2 251217Z 01008KT 17/16 A2979 RMK A01 T01660157  RH  095%=      5-min Rain = 0
KDO2 251218Z 02006KT 17/16 A298 RMK A01 T01660158  RH  095%=      5-min Rain = 0
KDO2 251219Z 02008KT 17/16 A298 RMK A01 T01660158  RH  095%=      5-min Rain = 0
KDO2 251220Z 02008KT 17/16 A298 RMK A01 T01660158  RH  095%=      5-min Rain = 0
KDO2 251221Z 02009KT 17/16 A298 RMK A01 T01670158  RH  095%=      5-min Rain = 0
KDO2 251222Z 02007KT 17/16 A298 RMK A01 T01670158  RH  095%=      5-min Rain = 0
KDO2 251223Z 02008KT 17/16 A298 RMK A01 T01670159  RH  095%=      5-min Rain = 0
KDO2 251224Z 02008KT 17/16 A298 RMK A01 T01670159  RH  094%=      5-min Rain = 0
KDO2 251225Z 02008KT 17/16 A298 RMK A01 T01680158  RH  094%=      5-min Rain = 0
KDO2 251226Z 02007KT 17/16 A298 RMK A01 T01680158  RH  094%=      5-min Rain = 0
KDO2 251227Z 02008KT 17/16 A298 RMK A01 T01680159  RH  094%=      5-min Rain = 0
KDO2 251228Z 01008KT 17/16 A298 RMK A01 T01680159  RH  094%=      5-min Rain = 0
KDO2 251229Z 01008KT 17/16 A2981 RMK A01 T01680158  RH  094%=      5-min Rain = 0
KDO2 251230Z 01009KT 17/16 A2981 RMK A01 T01680158  RH  094%=      5-min Rain = 0
KDO2 251231Z 01009KT 17/16 A2981 RMK A01 T01690158  RH  094%=      5-min Rain = 0
KDO2 251232Z 01008KT 17/16 A2981 RMK A01 T01690158  RH  093%=      5-min Rain = 0
KDO2 251233Z 01008KT 17/16 A2981 RMK A01 T01700159  RH  093%=      5-min Rain = 0
KDO2 251234Z 01009KT 17/16 A2981 RMK A01 T01700159  RH  093%=      5-min Rain = 0
KDO2 251235Z 01008KT 17/16 A2981 RMK A01 T01700159  RH  093%=      5-min Rain = 0
KDO2 251236Z 01007KT 17/16 A2982 RMK A01 T01700159  RH  093%=      5-min Rain = 0
KDO2 251237Z 01007KT 17/16 A2982 RMK A01 T01710160  RH  093%=      5-min Rain = 0
KDO2 251238Z 01006KT 17/16 A2982 RMK A01 T01710160  RH  093%=      5-min Rain = 0
KDO2 251239Z 01006KT 17/16 A2982 RMK A01 T01700159  RH  093%=      5-min Rain = 0
KDO2 251240Z 01006KT 17/16 A2982 RMK A01 T01700159  RH  093%=      5-min Rain = 0
KDO2 251241Z 01006KT 17/16 A2982 RMK A01 T01710160  RH  093%=      5-min Rain = 0
KDO2 251242Z 01006KT 17/16 A2982 RMK A01 T01710159  RH  093%=      5-min Rain = 0
KDO2 251243Z 01006KT 17/16 A2982 RMK A01 T01710160  RH  093%=      5-min Rain = 0
KDO2 251244Z 02006KT 17/16 A2982 RMK A01 T01720160  RH  093%=      5-min Rain = 0
KDO2 251245Z 02007KT 17/16 A2982 RMK A01 T01720160  RH  093%=      5-min Rain = 0
KDO2 251246Z 01007KT 17/16 A2982 RMK A01 T01720161  RH  093%=      5-min Rain = 0
KDO2 251247Z 02006KT 17/16 A2982 RMK A01 T01720161  RH  093%=      5-min Rain = 0
KDO2 251248Z 02006KT 17/16 A2982 RMK A01 T01720161  RH  093%=      5-min Rain = 0
KDO2 251249Z 02006KT 17/16 A2982 RMK A01 T01730161  RH  093%=      5-min Rain = 0
KDO2 251250Z 01007KT 17/16 A2982 RMK A01 T01730161  RH  093%=      5-min Rain = 0
KDO2 251251Z 01006KT 17/16 A2982 RMK A01 T01730161  RH  093%=      5-min Rain = 0
KDO2 251252Z 02006KT 17/16 A2982 RMK A01 T01730161  RH  093%=      5-min Rain = 0
KDO2 251253Z 02005KT 17/16 A2982 RMK A01 T01730161  RH  093%=      5-min Rain = 0
KDO2 251254Z 02005KT 17/16 A2982 RMK A01 T01740162  RH  093%=      5-min Rain = 0
KDO2 251255Z 01005KT 17/16 A2982 RMK A01 T01740162  RH  093%=      5-min Rain = 0
KDO2 251256Z 01004KT 17/16 A2982 RMK A01 T01740162  RH  093%=      5-min Rain = 0
KDO2 251257Z 01005KT 17/16 A2982 RMK A01 T01740162  RH  092%=      5-min Rain = 0
KDO2 251258Z 01005KT 17/16 A2982 RMK A01 T01740162  RH  093%=      5-min Rain = 0
KDO2 251259Z 01004KT 17/16 A2982 RMK A01 T01740161  RH  092%=      5-min Rain = 0
KDO2 251300Z 01004KT 17/16 A2983 RMK A01 T01740161  RH  092%=      5-min Rain = 0
KDO2 251301Z 01005KT 17/16 A2983 RMK A01 T01740161  RH  092%=      5-min Rain = 0
KDO2 251302Z 01005KT 18/16 A2983 RMK A01 T01750161  RH  092%=      5-min Rain = 0
KDO2 251303Z 01004KT 18/16 A2983 RMK A01 T01750161  RH  091%=      5-min Rain = 0
KDO2 251304Z 01005KT 18/16 A2983 RMK A01 T01750161  RH  092%=      5-min Rain = 0
KDO2 251305Z 01004KT 18/16 A2983 RMK A01 T01750161  RH  091%=      5-min Rain = 0
KDO2 251306Z 00004KT 18/16 A2983 RMK A01 T01760162  RH  092%=      5-min Rain = 0
KDO2 251307Z 00003KT 18/16 A2983 RMK A01 T01760162  RH  092%=      5-min Rain = 0
KDO2 251308Z 01004KT 18/16 A2983 RMK A01 T01760162  RH  091%=      5-min Rain = 0
KDO2 251309Z 00004KT 18/16 A2983 RMK A01 T01760161  RH  091%=      5-min Rain = 0
KDO2 251310Z 35003KT 18/16 A2983 RMK A01 T01770162  RH  091%=      5-min Rain = 0
KDO2 251311Z 36004KT 18/16 A2983 RMK A01 T01770163  RH  091%=      5-min Rain = 0
KDO2 251312Z 34003KT 18/16 A2983 RMK A01 T01770162  RH  091%=      5-min Rain = 0
KDO2 251313Z 35004KT 18/16 A2983 RMK A01 T01770162  RH  091%=      5-min Rain = 0
KDO2 251314Z 35003KT 18/16 A2983 RMK A01 T01770162  RH  091%=      5-min Rain = 0
KDO2 251315Z 36003KT 18/16 A2984 RMK A01 T01780164  RH  092%=      5-min Rain = 0
KDO2 251316Z 36003KT 18/16 A2984 RMK A01 T01780163  RH  091%=      5-min Rain = 0
KDO2 251317Z 35004KT 18/16 A2984 RMK A01 T01780163  RH  091%=      5-min Rain = 0
KDO2 251318Z 36004KT 18/16 A2984 RMK A01 T01780163  RH  091%=      5-min Rain = 0
KDO2 251319Z 36004KT 18/16 A2984 RMK A01 T01780163  RH  091%=      5-min Rain = 0
KDO2 251320Z 36003KT 18/16 A2984 RMK A01 T01780163  RH  091%=      5-min Rain = 0
KDO2 251321Z 34003KT 18/16 A2984 RMK A01 T01790164  RH  091%=      5-min Rain = 0
KDO2 251322Z 35003KT 18/16 A2984 RMK A01 T01790164  RH  091%=      5-min Rain = 0
KDO2 251323Z 35003KT 18/16 A2984 RMK A01 T01790164  RH  091%=      5-min Rain = 0
KDO2 251324Z 35003KT 18/16 A2984 RMK A01 T01790164  RH  091%=      5-min Rain = 0
KDO2 251325Z 36003KT 18/17 A2984 RMK A01 T01800166  RH  092%=      5-min Rain = 0
KDO2 251326Z 35003KT 18/17 A2984 RMK A01 T01800165  RH  091%=      5-min Rain = 0
KDO2 251327Z 35004KT 18/16 A2984 RMK A01 T01800164  RH  091%=      5-min Rain = 0
KDO2 251328Z 35003KT 18/16 A2984 RMK A01 T01800163  RH  090%=      5-min Rain = 0
KDO2 251329Z 35004KT 18/16 A2984 RMK A01 T01800163  RH  090%=      5-min Rain = 0
KDO2 251330Z 36004KT 18/16 A2984 RMK A01 T01800163  RH  090%=      5-min Rain = 0
KDO2 251331Z 35004KT 18/16 A2984 RMK A01 T01800163  RH  090%=      5-min Rain = 0
KDO2 251332Z 36004KT 18/16 A2984 RMK A01 T01810164  RH  090%=      5-min Rain = 0
KDO2 251333Z 00004KT 18/16 A2984 RMK A01 T01810163  RH  089%=      5-min Rain = 0
KDO2 251334Z 00004KT 18/16 A2984 RMK A01 T01810163  RH  089%=      5-min Rain = 0
KDO2 251335Z 36003KT 18/17 A2984 RMK A01 T01820165  RH  090%=      5-min Rain = 0
KDO2 251336Z 36003KT 18/16 A2984 RMK A01 T01820164  RH  089%=      5-min Rain = 0
KDO2 251337Z 36003KT 18/16 A2984 RMK A01 T01820163  RH  088%=      5-min Rain = 0
KDO2 251338Z 35003KT 18/16 A2984 RMK A01 T01820163  RH  088%=      5-min Rain = 0
KDO2 251339Z 36003KT 18/16 A2984 RMK A01 T01820163  RH  089%=      5-min Rain = 0
KDO2 251340Z 35003KT 18/16 A2984 RMK A01 T01820163  RH  089%=      5-min Rain = 0
KDO2 251341Z 35003KT 18/16 A2984 RMK A01 T01820163  RH  088%=      5-min Rain = 0
KDO2 251342Z 35003KT 18/16 A2984 RMK A01 T01830163  RH  088%=      5-min Rain = 0
KDO2 251343Z 36002KT 18/16 A2985 RMK A01 T01820162  RH  088%=      5-min Rain = 0
KDO2 251344Z 36002KT 18/16 A2985 RMK A01 T01820162  RH  088%=      5-min Rain = 0
KDO2 251345Z 01002KT 18/16 A2985 RMK A01 T01830161  RH  087%=      5-min Rain = 0
KDO2 251346Z 00003KT 18/16 A2985 RMK A01 T01830163  RH  088%=      5-min Rain = 0
KDO2 251347Z 35003KT 18/16 A2985 RMK A01 T01830163  RH  088%=      5-min Rain = 0
KDO2 251348Z 35004KT 18/16 A2985 RMK A01 T01840164  RH  088%=      5-min Rain = 0
KDO2 251349Z 00004KT 18/17 A2985 RMK A01 T01840165  RH  088%=      5-min Rain = 0
KDO2 251350Z 01005KT 19/17 A2985 RMK A01 T01850165  RH  088%=      5-min Rain = 0
KDO2 251351Z 01005KT 19/16 A2985 RMK A01 T01850164  RH  087%=      5-min Rain = 0
KDO2 251352Z 01005KT 19/16 A2985 RMK A01 T01850164  RH  088%=      5-min Rain = 0
KDO2 251353Z 01004KT 19/17 A2985 RMK A01 T01850165  RH  088%=      5-min Rain = 0
KDO2 251354Z 01005KT 19/17 A2985 RMK A01 T01870167  RH  088%=      5-min Rain = 0
KDO2 251355Z 02005KT 19/17 A2985 RMK A01 T01870166  RH  088%=      5-min Rain = 0
KDO2 251356Z 01005KT 19/17 A2985 RMK A01 T01870167  RH  088%=      5-min Rain = 0
KDO2 251357Z 02005KT 19/17 A2985 RMK A01 T01870165  RH  087%=      5-min Rain = 0
KDO2 251358Z 01006KT 19/16 A2985 RMK A01 T01870164  RH  086%=      5-min Rain = 0
KDO2 251359Z 01005KT 19/16 A2985 RMK A01 T01870164  RH  087%=      5-min Rain = 0
KDO2 251400Z 00005KT 19/16 A2985 RMK A01 T01870163  RH  086%=      5-min Rain = 0
KDO2 251401Z 01004KT 19/16 A2985 RMK A01 T01870163  RH  086%=      5-min Rain = 0
KDO2 251402Z 02004KT 19/16 A2986 RMK A01 T01870164  RH  086%=      5-min Rain = 0
KDO2 251403Z 02004KT 19/16 A2986 RMK A01 T01880161  RH  085%=      5-min Rain = 0
KDO2 251404Z 01005KT 19/16 A2986 RMK A01 T01880164  RH  086%=      5-min Rain = 0
KDO2 251405Z 00006KT 19/16 A2986 RMK A01 T01890163  RH  085%=      5-min Rain = 0
KDO2 251406Z 01005KT 19/16 A2986 RMK A01 T01890163  RH  085%=      5-min Rain = 0
KDO2 251407Z 01006KT 19/17 A2986 RMK A01 T01890166  RH  086%=      5-min Rain = 0
KDO2 251408Z 01004KT 19/16 A2986 RMK A01 T01890162  RH  084%=      5-min Rain = 0
KDO2 251409Z 01004KT 19/16 A2986 RMK A01 T01890164  RH  085%=      5-min Rain = 0
KDO2 251410Z 02005KT 19/16 A2986 RMK A01 T01900164  RH  085%=      5-min Rain = 0
KDO2 251411Z 03005KT 19/16 A2986 RMK A01 T01900163  RH  084%=      5-min Rain = 0
KDO2 251412Z 02005KT 19/16 A2986 RMK A01 T01900163  RH  084%=      5-min Rain = 0
KDO2 251413Z 03003KT 19/16 A2986 RMK A01 T01900161  RH  083%=      5-min Rain = 0
KDO2 251414Z 03004KT 19/16 A2986 RMK A01 T01900163  RH  084%=      5-min Rain = 0
KDO2 251415Z 03005KT 19/16 A2986 RMK A01 T01910163  RH  084%=      5-min Rain = 0
KDO2 251416Z 03004KT 19/16 A2986 RMK A01 T01910160  RH  082%=      5-min Rain = 0
KDO2 251417Z 04005KT 19/16 A2986 RMK A01 T01910164  RH  084%=      5-min Rain = 0
KDO2 251418Z 04004KT 19/16 A2986 RMK A01 T01920163  RH  083%=      5-min Rain = 0
KDO2 251419Z 03004KT 19/16 A2986 RMK A01 T01920163  RH  083%=      5-min Rain = 0
KDO2 251420Z 03003KT 19/16 A2986 RMK A01 T01920161  RH  082%=      5-min Rain = 0
KDO2 251421Z 03004KT 19/16 A2986 RMK A01 T01920163  RH  083%=      5-min Rain = 0
KDO2 251422Z 03004KT 19/16 A2986 RMK A01 T01930164  RH  083%=      5-min Rain = 0
KDO2 251423Z 03004KT 19/16 A2986 RMK A01 T01940164  RH  083%=      5-min Rain = 0
KDO2 251424Z 02004KT 19/16 A2986 RMK A01 T01940163  RH  082%=      5-min Rain = 0
KDO2 251425Z 02003KT 20/17 A2986 RMK A01 T01950166  RH  083%=      5-min Rain = 0
KDO2 251426Z 01004KT 20/16 A2986 RMK A01 T01950163  RH  082%=      5-min Rain = 0
KDO2 251427Z 02005KT 20/17 A2986 RMK A01 T01960167  RH  083%=      5-min Rain = 0
KDO2 251428Z 02004KT 20/17 A2986 RMK A01 T01960166  RH  083%=      5-min Rain = 0
KDO2 251429Z 01004KT 20/17 A2986 RMK A01 T01970165  RH  082%=      5-min Rain = 0
KDO2 251430Z 01004KT 20/17 A2986 RMK A01 T01970166  RH  083%=      5-min Rain = 0
KDO2 251431Z 02005KT 20/17 A2986 RMK A01 T01970169  RH  084%=      5-min Rain = 0
KDO2 251432Z 03004KT 20/16 A2986 RMK A01 T01970164  RH  081%=      5-min Rain = 0
KDO2 251433Z 03005KT 20/17 A2986 RMK A01 T01970168  RH  083%=      5-min Rain = 0
KDO2 251434Z 02003KT 20/16 A2986 RMK A01 T01970163  RH  081%=      5-min Rain = 0
KDO2 251435Z 03004KT 20/17 A2987 RMK A01 T01980167  RH  082%=      5-min Rain = 0
KDO2 251436Z 02004KT 20/17 A2987 RMK A01 T01980168  RH  083%=      5-min Rain = 0
KDO2 251437Z 02005KT 20/17 A2987 RMK A01 T01990165  RH  081%=      5-min Rain = 0
KDO2 251438Z 02006KT 20/16 A2987 RMK A01 T01990163  RH  079%=      5-min Rain = 0
KDO2 251439Z 02005KT 20/16 A2987 RMK A01 T01990162  RH  079%=      5-min Rain = 0
KDO2 251440Z 04005KT 20/17 A2987 RMK A01 T01990166  RH  081%=      5-min Rain = 0
KDO2 251441Z 04005KT 20/17 A2987 RMK A01 T02000166  RH  081%=      5-min Rain = 0
KDO2 251442Z 03005KT 20/17 A2987 RMK A01 T02010167  RH  081%=      5-min Rain = 0
KDO2 251443Z 03005KT 20/16 A2987 RMK A01 T02010162  RH  078%=      5-min Rain = 0
KDO2 251444Z 03004KT 20/17 A2986 RMK A01 T02020168  RH  081%=      5-min Rain = 0
KDO2 251445Z 04004KT 20/17 A2986 RMK A01 T02030173  RH  083%=      5-min Rain = 0
KDO2 251446Z 06006KT 21/17 A2986 RMK A01 T02050173  RH  082%=      5-min Rain = 0
KDO2 251447Z 05007KT 21/16 A2986 RMK A01 T02050164  RH  077%=      5-min Rain = 0
KDO2 251448Z 05007KT 21/16 A2986 RMK A01 T02050164  RH  077%=      5-min Rain = 0
KDO2 251449Z 05007KT 21/17 A2986 RMK A01 T02050166  RH  078%=      5-min Rain = 0
KDO2 251450Z 04007KT 21/17 A2986 RMK A01 T02050169  RH  080%=      5-min Rain = 0
KDO2 251451Z 04007KT 21/17 A2986 RMK A01 T02060169  RH  079%=      5-min Rain = 0
KDO2 251452Z 05006KT 21/17 A2986 RMK A01 T02060166  RH  078%=      5-min Rain = 0
KDO2 251453Z 05006KT 21/17 A2986 RMK A01 T02070169  RH  079%=      5-min Rain = 0
KDO2 251454Z 03006KT 21/17 A2986 RMK A01 T02070173  RH  081%=      5-min Rain = 0
KDO2 251455Z 06006KT 21/17 A2987 RMK A01 T02080170  RH  079%=      5-min Rain = 0
KDO2 251456Z 05005KT 21/17 A2987 RMK A01 T02080169  RH  078%=      5-min Rain = 0
KDO2 251457Z 04005KT 21/16 A2987 RMK A01 T02080164  RH  076%=      5-min Rain = 0
KDO2 251458Z 04007KT 21/17 A2987 RMK A01 T02070166  RH  077%=      5-min Rain = 0
KDO2 251459Z 07008KT 21/17 A2987 RMK A01 T02070166  RH  077%=      5-min Rain = 0
KDO2 251500Z 05009KT 21/17 A2987 RMK A01 T02070166  RH  077%=      5-min Rain = 0
KDO2 251501Z 05008KT 21/16 A2987 RMK A01 T02070157  RH  073%=      5-min Rain = 0
KDO2 251502Z 06008KT 21/16 A2987 RMK A01 T02070158  RH  073%=      5-min Rain = 0
KDO2 251503Z 07006KT 21/16 A2987 RMK A01 T02070160  RH  074%=      5-min Rain = 0
KDO2 251504Z 06010KT 21/17 A2987 RMK A01 T02080165  RH  077%=      5-min Rain = 0
KDO2 251505Z 05009KT 21/16 A2987 RMK A01 T02090162  RH  075%=      5-min Rain = 0
KDO2 251506Z 04010KT 21/16 A2987 RMK A01 T02100160  RH  073%=      5-min Rain = 0
KDO2 251507Z 06008KT 21/16 A2987 RMK A01 T02100158  RH  072%=      5-min Rain = 0
KDO2 251508Z 05007KT 21/16 A2987 RMK A01 T02090164  RH  075%=      5-min Rain = 0
KDO2 251509Z 04006KT 21/17 A2987 RMK A01 T02100165  RH  075%=      5-min Rain = 0
KDO2 251510Z 05007KT 21/17 A2987 RMK A01 T02100169  RH  077%=      5-min Rain = 0
KDO2 251511Z 04007KT 21/17 A2987 RMK A01 T02100167  RH  077%=      5-min Rain = 0
KDO2 251512Z 06008KT 21/17 A2987 RMK A01 T02100169  RH  077%=      5-min Rain = 0
KDO2 251513Z 07006KT 21/17 A2987 RMK A01 T02100165  RH  076%=      5-min Rain = 0
KDO2 251514Z 06007KT 21/17 A2987 RMK A01 T02090168  RH  077%=      5-min Rain = 0
KDO2 251515Z 07007KT 21/17 A2987 RMK A01 T02090167  RH  077%=      5-min Rain = 0
KDO2 251516Z 06009KT 21/17 A2987 RMK A01 T02100166  RH  076%=      5-min Rain = 0
KDO2 251517Z 06009KT 21/16 A2987 RMK A01 T02100161  RH  073%=      5-min Rain = 0
KDO2 251518Z 06009KT 21/16 A2987 RMK A01 T02100161  RH  074%=      5-min Rain = 0
KDO2 251519Z 06010KT 21/16 A2986 RMK A01 T02110162  RH  074%=      5-min Rain = 0
KDO2 251520Z 07008KT 21/16 A2987 RMK A01 T02110163  RH  074%=      5-min Rain = 0
KDO2 251521Z 06009KT 21/16 A2986 RMK A01 T02110163  RH  074%=      5-min Rain = 0
KDO2 251522Z 05009KT 21/16 A2986 RMK A01 T02110159  RH  072%=      5-min Rain = 0
KDO2 251523Z 05009KT 21/16 A2986 RMK A01 T02110162  RH  073%=      5-min Rain = 0
KDO2 251524Z 05009KT 21/16 A2986 RMK A01 T02110160  RH  073%=      5-min Rain = 0
KDO2 251525Z 06008KT 21/16 A2986 RMK A01 T02110159  RH  072%=      5-min Rain = 0
KDO2 251526Z 06009KT 21/17 A2986 RMK A01 T02110168  RH  076%=      5-min Rain = 0
KDO2 251527Z 06009KT 21/16 A2986 RMK A01 T02120163  RH  074%=      5-min Rain = 0
KDO2 251528Z 06008KT 21/16 A2986 RMK A01 T02120158  RH  071%=      5-min Rain = 0
KDO2 251529Z 06009KT 21/16 A2986 RMK A01 T02120164  RH  074%=      5-min Rain = 0
KDO2 251530Z 08008KT 21/16 A2986 RMK A01 T02130162  RH  073%=      5-min Rain = 0
KDO2 251531Z 07009KT 21/16 A2986 RMK A01 T02130160  RH  071%=      5-min Rain = 0
KDO2 251532Z 07007KT 21/16 A2987 RMK A01 T02130160  RH  072%=      5-min Rain = 0
KDO2 251533Z 04007KT 21/17 A2987 RMK A01 T02130165  RH  074%=      5-min Rain = 0
KDO2 251534Z 04010KT 21/17 A2987 RMK A01 T02130166  RH  074%=      5-min Rain = 0
KDO2 251535Z 04010KT 21/16 A2987 RMK A01 T02130164  RH  074%=      5-min Rain = 0
KDO2 251536Z 02010KT 21/17 A2987 RMK A01 T02120166  RH  075%=      5-min Rain = 0
KDO2 251537Z 02013KT 21/16 A2987 RMK A01 T02110164  RH  075%=      5-min Rain = 0
KDO2 251538Z 05010KT 21/17 A2987 RMK A01 T02110172  RH  078%=      5-min Rain = 0
KDO2 251539Z 06008KT 21/16 A2987 RMK A01 T02130163  RH  073%=      5-min Rain = 0
KDO2 251540Z 05007KT 21/16 A2987 RMK A01 T02130158  RH  071%=      5-min Rain = 0
KDO2 251541Z 06007KT 21/17 A2987 RMK A01 T02130167  RH  075%=      5-min Rain = 0
KDO2 251542Z 06009KT 21/17 A2987 RMK A01 T02140171  RH  077%=      5-min Rain = 0
KDO2 251543Z 05010KT 21/17 A2987 RMK A01 T02140168  RH  075%=      5-min Rain = 0
KDO2 251544Z 05008KT 22/17 A2987 RMK A01 T02150171  RH  076%=      5-min Rain = 0
KDO2 251545Z 06009KT 22/17 A2987 RMK A01 T02150165  RH  073%=      5-min Rain = 0
KDO2 251546Z 06010KT 22/17 A2987 RMK A01 T02160169  RH  075%=      5-min Rain = 0
KDO2 251547Z 07012KT 22/17 A2987 RMK A01 T02160165  RH  072%=      5-min Rain = 0
KDO2 251548Z 06010KT 22/16 A2987 RMK A01 T02160161  RH  071%=      5-min Rain = 0
KDO2 251549Z 06011KT 22/17 A2987 RMK A01 T02160166  RH  073%=      5-min Rain = 0
KDO2 251550Z 06011KT 22/16 A2987 RMK A01 T02170163  RH  071%=      5-min Rain = 0
KDO2 251551Z 07009KT 22/17 A2987 RMK A01 T02160168  RH  074%=      5-min Rain = 0
KDO2 251552Z 06010KT 22/16 A2987 RMK A01 T02160164  RH  072%=      5-min Rain = 0
KDO2 251553Z 06008KT 22/16 A2987 RMK A01 T02150163  RH  072%=      5-min Rain = 0
KDO2 251554Z 05010KT 22/17 A2987 RMK A01 T02150167  RH  074%=      5-min Rain = 0
KDO2 251555Z 05009KT 22/17 A2987 RMK A01 T02150165  RH  073%=      5-min Rain = 0
KDO2 251556Z 05009KT 22/17 A2986 RMK A01 T02150167  RH  074%=      5-min Rain = 0
KDO2 251557Z 06008KT 22/17 A2986 RMK A01 T02160166  RH  073%=      5-min Rain = 0
KDO2 251558Z 05007KT 22/16 A2986 RMK A01 T02160163  RH  072%=      5-min Rain = 0
KDO2 251559Z 05006KT 22/16 A2986 RMK A01 T02170164  RH  072%=      5-min Rain = 0
KDO2 251600Z 06006KT 22/17 A2986 RMK A01 T02180166  RH  072%=      5-min Rain = 0
KDO2 251601Z 06008KT 22/16 A2986 RMK A01 T02190160  RH  069%=      5-min Rain = 0
KDO2 251602Z 05008KT 22/16 A2986 RMK A01 T02190155  RH  067%=      5-min Rain = 0
KDO2 251603Z 05007KT 22/16 A2986 RMK A01 T02180157  RH  068%=      5-min Rain = 0
KDO2 251604Z 05007KT 22/16 A2986 RMK A01 T02180157  RH  068%=      5-min Rain = 0
KDO2 251605Z 05007KT 22/16 A2986 RMK A01 T02190164  RH  071%=      5-min Rain = 0
KDO2 251606Z 08007KT 22/16 A2986 RMK A01 T02210161  RH  069%=      5-min Rain = 0
KDO2 251607Z 05005KT 22/16 A2986 RMK A01 T02200158  RH  068%=      5-min Rain = 0
KDO2 251608Z 06005KT 22/16 A2986 RMK A01 T02200158  RH  068%=      5-min Rain = 0
KDO2 251609Z 06008KT 22/16 A2986 RMK A01 T02200158  RH  068%=      5-min Rain = 0
KDO2 251610Z 06007KT 22/15 A2986 RMK A01 T02190154  RH  066%=      5-min Rain = 0
KDO2 251611Z 06005KT 22/16 A2986 RMK A01 T02200161  RH  069%=      5-min Rain = 0
KDO2 251612Z 06005KT 22/16 A2986 RMK A01 T02210156  RH  067%=      5-min Rain = 0
KDO2 251613Z 04007KT 22/15 A2986 RMK A01 T02220154  RH  065%=      5-min Rain = 0
KDO2 251614Z 06011KT 22/16 A2986 RMK A01 T02220159  RH  067%=      5-min Rain = 0
KDO2 251615Z 05007KT 22/16 A2986 RMK A01 T02230155  RH  065%=      5-min Rain = 0
KDO2 251616Z 03007KT 22/16 A2986 RMK A01 T02220159  RH  068%=      5-min Rain = 0
KDO2 251617Z 05009KT 22/16 A2986 RMK A01 T02230156  RH  066%=      5-min Rain = 0
KDO2 251618Z 04008KT 22/16 A2986 RMK A01 T02230161  RH  068%=      5-min Rain = 0
KDO2 251619Z 03007KT 22/16 A2986 RMK A01 T02230158  RH  067%=      5-min Rain = 0
KDO2 251620Z 03007KT 22/16 A2986 RMK A01 T02240155  RH  065%=      5-min Rain = 0
KDO2 251621Z 03007KT 22/15 A2986 RMK A01 T02230151  RH  064%=      5-min Rain = 0
KDO2 251622Z 03008KT 22/16 A2986 RMK A01 T02230156  RH  066%=      5-min Rain = 0
KDO2 251623Z 02008KT 22/17 A2986 RMK A01 T02240165  RH  069%=      5-min Rain = 0
KDO2 251624Z 02009KT 23/16 A2986 RMK A01 T02250159  RH  066%=      5-min Rain = 0
KDO2 251625Z 01010KT 23/16 A2986 RMK A01 T02260164  RH  068%=      5-min Rain = 0
KDO2 251626Z 01008KT 23/15 A2986 RMK A01 T02250153  RH  064%=      5-min Rain = 0
KDO2 251627Z 02008KT 22/16 A2986 RMK A01 T02240157  RH  066%=      5-min Rain = 0
KDO2 251628Z 02007KT 22/16 A2986 RMK A01 T02240162  RH  068%=      5-min Rain = 0
KDO2 251629Z 02008KT 23/17 A2986 RMK A01 T02260169  RH  070%=      5-min Rain = 0
KDO2 251630Z 03009KT 23/16 A2986 RMK A01 T02280157  RH  064%=      5-min Rain = 0
KDO2 251631Z 04008KT 23/16 A2986 RMK A01 T02260155  RH  064%=      5-min Rain = 0
KDO2 251632Z 04007KT 23/16 A2986 RMK A01 T02260161  RH  067%=      5-min Rain = 0
KDO2 251633Z 04009KT 23/16 A2986 RMK A01 T02260164  RH  068%=      5-min Rain = 0
KDO2 251634Z 04008KT 23/16 A2986 RMK A01 T02260155  RH  064%=      5-min Rain = 0
KDO2 251635Z 05006KT 23/16 A2986 RMK A01 T02250161  RH  067%=      5-min Rain = 0
KDO2 251636Z 05008KT 23/16 A2986 RMK A01 T02250164  RH  068%=      5-min Rain = 0
KDO2 251637Z 05008KT 23/17 A2986 RMK A01 T02260166  RH  069%=      5-min Rain = 0
KDO2 251638Z 04007KT 23/16 A2986 RMK A01 T02260156  RH  064%=      5-min Rain = 0
KDO2 251639Z 05007KT 23/16 A2986 RMK A01 T02250156  RH  065%=      5-min Rain = 0
KDO2 251640Z 06008KT 22/16 A2986 RMK A01 T02240157  RH  066%=      5-min Rain = 0
KDO2 251641Z 06009KT 22/16 A2986 RMK A01 T02240164  RH  069%=      5-min Rain = 0
KDO2 251642Z 05009KT 23/17 A2986 RMK A01 T02250166  RH  069%=      5-min Rain = 0
KDO2 251643Z 04009KT 23/17 A2986 RMK A01 T02260166  RH  069%=      5-min Rain = 0
KDO2 251644Z 02008KT 23/16 A2986 RMK A01 T02260159  RH  066%=      5-min Rain = 0
KDO2 251645Z 02007KT 23/16 A2986 RMK A01 T02250160  RH  067%=      5-min Rain = 0
KDO2 251646Z 01005KT 23/16 A2986 RMK A01 T02250161  RH  067%=      5-min Rain = 0
KDO2 251647Z 35004KT 23/16 A2986 RMK A01 T02250158  RH  066%=      5-min Rain = 0
KDO2 251648Z 00003KT 22/15 A2986 RMK A01 T02240152  RH  064%=      5-min Rain = 0
KDO2 251649Z 01003KT 22/16 A2986 RMK A01 T02240157  RH  066%=      5-min Rain = 0
KDO2 251650Z 05007KT 22/16 A2986 RMK A01 T02240155  RH  065%=      5-min Rain = 0
KDO2 251651Z 04009KT 22/16 A2986 RMK A01 T02240159  RH  066%=      5-min Rain = 0
KDO2 251652Z 03007KT 23/16 A2986 RMK A01 T02250156  RH  065%=      5-min Rain = 0
KDO2 251653Z 03006KT 23/16 A2986 RMK A01 T02250160  RH  067%=      5-min Rain = 0
KDO2 251654Z 02005KT 23/17 A2986 RMK A01 T02270169  RH  070%=      5-min Rain = 0
KDO2 251655Z 05006KT 23/17 A2986 RMK A01 T02280168  RH  069%=      5-min Rain = 0
KDO2 251656Z 06004KT 23/16 A2986 RMK A01 T02280157  RH  064%=      5-min Rain = 0
KDO2 251657Z 06003KT 23/16 A2986 RMK A01 T02270157  RH  065%=      5-min Rain = 0
KDO2 251658Z 04005KT 23/17 A2986 RMK A01 T02270165  RH  068%=      5-min Rain = 0
KDO2 251659Z 05007KT 23/17 A2986 RMK A01 T02280167  RH  069%=      5-min Rain = 0
KDO2 251700Z 05007KT 23/16 A2986 RMK A01 T02290160  RH  065%=      5-min Rain = 0
KDO2 251701Z 05008KT 23/16 A2986 RMK A01 T02280162  RH  066%=      5-min Rain = 0
KDO2 251702Z 04010KT 23/16 A2986 RMK A01 T02280160  RH  065%=      5-min Rain = 0
KDO2 251703Z 04008KT 23/16 A2986 RMK A01 T02280159  RH  065%=      5-min Rain = 0
KDO2 251704Z 04009KT 23/16 A2986 RMK A01 T02280163  RH  067%=      5-min Rain = 0
KDO2 251705Z 04008KT 23/15 A2986 RMK A01 T02290152  RH  062%=      5-min Rain = 0
KDO2 251706Z 05007KT 23/16 A2986 RMK A01 T02280160  RH  065%=      5-min Rain = 0
KDO2 251707Z 04005KT 23/17 A2986 RMK A01 T02300165  RH  067%=      5-min Rain = 0
KDO2 251708Z 04008KT 23/16 A2986 RMK A01 T02300162  RH  065%=      5-min Rain = 0
KDO2 251709Z 04009KT 23/17 A2986 RMK A01 T02310165  RH  066%=      5-min Rain = 0
KDO2 251710Z 05007KT 23/16 A2986 RMK A01 T02310160  RH  064%=      5-min Rain = 0
KDO2 251711Z 03008KT 23/16 A2986 RMK A01 T02320164  RH  066%=      5-min Rain = 0
KDO2 251712Z 03005KT 23/16 A2986 RMK A01 T02320163  RH  065%=      5-min Rain = 0.01
KDO2 251713Z 05004KT 23/16 A2986 RMK A01 T02330162  RH  064%=      5-min Rain = 0
KDO2 251714Z 04005KT 23/16 A2986 RMK A01 T02320156  RH  062%=      5-min Rain = 0
KDO2 251715Z 02007KT 23/17 A2986 RMK A01 T02320167  RH  067%=      5-min Rain = 0
KDO2 251716Z 03008KT 23/16 A2986 RMK A01 T02330159  RH  063%=      5-min Rain = 0
KDO2 251717Z 02009KT 23/16 A2986 RMK A01 T02320155  RH  062%=      5-min Rain = 0
KDO2 251718Z 02007KT 23/15 A2986 RMK A01 T02310153  RH  061%=      5-min Rain = 0
KDO2 251719Z 03006KT 23/16 A2986 RMK A01 T02310157  RH  063%=      5-min Rain = 0
KDO2 251720Z 02005KT 23/15 A2986 RMK A01 T02310154  RH  062%=      5-min Rain = 0
KDO2 251721Z 03004KT 23/16 A2986 RMK A01 T02320156  RH  062%=      5-min Rain = 0
KDO2 251722Z 02006KT 23/16 A2986 RMK A01 T02340161  RH  064%=      5-min Rain = 0
KDO2 251723Z 04007KT 23/16 A2986 RMK A01 T02340160  RH  063%=      5-min Rain = 0
KDO2 251724Z 05008KT 24/16 A2986 RMK A01 T02350164  RH  064%=      5-min Rain = 0
KDO2 251725Z 06010KT 24/17 A2986 RMK A01 T02360170  RH  066%=      5-min Rain = 0
KDO2 251726Z 07009KT 24/17 A2986 RMK A01 T02380169  RH  065%=      5-min Rain = 0
KDO2 251727Z 06006KT 24/16 A2986 RMK A01 T02380158  RH  061%=      5-min Rain = 0
KDO2 251728Z 07006KT 24/16 A2986 RMK A01 T02360156  RH  061%=      5-min Rain = 0
KDO2 251729Z 09005KT 24/15 A2986 RMK A01 T02350152  RH  060%=      5-min Rain = 0
KDO2 251730Z 06010KT 23/16 A2986 RMK A01 T02340162  RH  064%=      5-min Rain = 0
KDO2 251731Z 06008KT 24/16 A2986 RMK A01 T02350160  RH  063%=      5-min Rain = 0
KDO2 251732Z 06007KT 24/15 A2986 RMK A01 T02350151  RH  059%=      5-min Rain = 0
KDO2 251733Z 06005KT 23/16 A2986 RMK A01 T02340159  RH  063%=      5-min Rain = 0
KDO2 251734Z 05006KT 23/16 A2986 RMK A01 T02340159  RH  063%=      5-min Rain = 0
KDO2 251735Z 05005KT 23/15 A2986 RMK A01 T02340151  RH  059%=      5-min Rain = 0
KDO2 251736Z 04008KT 23/16 A2986 RMK A01 T02340159  RH  063%=      5-min Rain = 0
KDO2 251737Z 04008KT 23/16 A2986 RMK A01 T02330160  RH  064%=      5-min Rain = 0
KDO2 251738Z 05008KT 23/16 A2986 RMK A01 T02330161  RH  064%=      5-min Rain = 0
KDO2 251739Z 05007KT 23/16 A2986 RMK A01 T02330157  RH  062%=      5-min Rain = 0
KDO2 251740Z 03006KT 23/16 A2986 RMK A01 T02330161  RH  064%=      5-min Rain = 0
KDO2 251741Z 03005KT 23/16 A2986 RMK A01 T02330158  RH  063%=      5-min Rain = 0
KDO2 251742Z 03004KT 23/16 A2986 RMK A01 T02330155  RH  062%=      5-min Rain = 0
KDO2 251743Z 04007KT 23/16 A2986 RMK A01 T02330161  RH  064%=      5-min Rain = 0
KDO2 251744Z 03008KT 23/16 A2986 RMK A01 T02330160  RH  063%=      5-min Rain = 0
KDO2 251745Z 03007KT 23/15 A2986 RMK A01 T02340152  RH  060%=      5-min Rain = 0
KDO2 251746Z 04008KT 23/16 A2985 RMK A01 T02340157  RH  062%=      5-min Rain = 0
KDO2 251747Z 05007KT 24/16 A2985 RMK A01 T02350156  RH  061%=      5-min Rain = 0
KDO2 251748Z 04008KT 24/16 A2985 RMK A01 T02350161  RH  063%=      5-min Rain = 0
KDO2 251749Z 02009KT 24/16 A2985 RMK A01 T02350164  RH  065%=      5-min Rain = 0
KDO2 251750Z 04009KT 24/17 A2985 RMK A01 T02360168  RH  066%=      5-min Rain = 0
KDO2 251751Z 04006KT 24/16 A2985 RMK A01 T02360160  RH  062%=      5-min Rain = 0
KDO2 251752Z 02005KT 24/16 A2985 RMK A01 T02350159  RH  062%=      5-min Rain = 0
KDO2 251753Z 03007KT 24/17 A2985 RMK A01 T02350168  RH  066%=      5-min Rain = 0
KDO2 251754Z 04006KT 24/16 A2985 RMK A01 T02360158  RH  061%=      5-min Rain = 0
KDO2 251755Z 04008KT 24/17 A2985 RMK A01 T02360165  RH  064%=      5-min Rain = 0
KDO2 251756Z 03005KT 24/16 A2986 RMK A01 T02360159  RH  062%=      5-min Rain = 0
KDO2 251757Z 07003KT 24/16 A2985 RMK A01 T02360163  RH  064%=      5-min Rain = 0
KDO2 251758Z 06003KT 24/16 A2985 RMK A01 T02360155  RH  061%=      5-min Rain = 0
KDO2 251759Z 07005KT 24/16 A2985 RMK A01 T02370164  RH  064%=      5-min Rain = 0
KDO2 251800Z 02008KT 24/17 A2985 RMK A01 T02390169  RH  065%=      5-min Rain = 0
KDO2 251801Z 02008KT 24/17 A2985 RMK A01 T02390166  RH  064%=      5-min Rain = 0
KDO2 251802Z 04009G14KT 24/17 A2985 RMK A01 T02370172  RH  067%=      5-min Rain = 0
KDO2 251803Z 04010KT 24/17 A2985 RMK A01 T02380171  RH  066%=      5-min Rain = 0
KDO2 251804Z 03010KT 24/16 A2986 RMK A01 T02370162  RH  063%=      5-min Rain = 0
KDO2 251805Z 04008KT 24/16 A2986 RMK A01 T02350162  RH  063%=      5-min Rain = 0
KDO2 251806Z 04008KT 24/16 A2986 RMK A01 T02350161  RH  063%=      5-min Rain = 0
KDO2 251807Z 04007KT 23/16 A2986 RMK A01 T02340156  RH  062%=      5-min Rain = 0
KDO2 251808Z 03007KT 23/16 A2986 RMK A01 T02330161  RH  064%=      5-min Rain = 0
KDO2 251809Z 03007KT 23/16 A2985 RMK A01 T02330158  RH  062%=      5-min Rain = 0
KDO2 251810Z 01006KT 23/16 A2985 RMK A01 T02330160  RH  064%=      5-min Rain = 0
KDO2 251811Z 01004KT 23/15 A2985 RMK A01 T02340154  RH  061%=      5-min Rain = 0
KDO2 251812Z 01005KT 23/15 A2985 RMK A01 T02340151  RH  060%=      5-min Rain = 0
KDO2 251813Z 04008KT 23/15 A2985 RMK A01 T02340154  RH  061%=      5-min Rain = 0
KDO2 251814Z 03007KT 24/15 A2985 RMK A01 T02350154  RH  061%=      5-min Rain = 0
KDO2 251815Z 04007KT 24/16 A2985 RMK A01 T02360162  RH  063%=      5-min Rain = 0
KDO2 251816Z 05006KT 24/15 A2985 RMK A01 T02370154  RH  060%=      5-min Rain = 0
KDO2 251817Z 05008KT 24/16 A2985 RMK A01 T02370164  RH  064%=      5-min Rain = 0
KDO2 251818Z 05008KT 24/16 A2985 RMK A01 T02370157  RH  061%=      5-min Rain = 0
KDO2 251819Z 03009KT 24/16 A2985 RMK A01 T02370164  RH  064%=      5-min Rain = 0
KDO2 251820Z 04011KT 24/16 A2985 RMK A01 T02370163  RH  063%=      5-min Rain = 0
KDO2 251821Z 04010KT 24/16 A2985 RMK A01 T02370163  RH  063%=      5-min Rain = 0
KDO2 251822Z 05008KT 24/16 A2985 RMK A01 T02370162  RH  063%=      5-min Rain = 0
KDO2 251823Z 06006KT 24/16 A2985 RMK A01 T02370157  RH  061%=      5-min Rain = 0
KDO2 251824Z 03006KT 24/16 A2985 RMK A01 T02360159  RH  062%=      5-min Rain = 0
KDO2 251825Z 03005KT 24/16 A2985 RMK A01 T02360156  RH  061%=      5-min Rain = 0
KDO2 251826Z 03003KT 24/15 A2985 RMK A01 T02370153  RH  059%=      5-min Rain = 0
KDO2 251827Z 05002KT 24/15 A2985 RMK A01 T02360149  RH  058%=      5-min Rain = 0
KDO2 251828Z 05003KT 24/15 A2985 RMK A01 T02360151  RH  059%=      5-min Rain = 0
KDO2 251829Z 05004KT 24/15 A2985 RMK A01 T02360151  RH  059%=      5-min Rain = 0
KDO2 251830Z 05004KT 24/16 A2985 RMK A01 T02370157  RH  061%=      5-min Rain = 0
KDO2 251831Z 05005KT 24/15 A2985 RMK A01 T02380154  RH  059%=      5-min Rain = 0
KDO2 251832Z 05006KT 24/16 A2985 RMK A01 T02390161  RH  062%=      5-min Rain = 0
KDO2 251833Z 03008KT 24/16 A2985 RMK A01 T02400159  RH  060%=      5-min Rain = 0
KDO2 251834Z 02007KT 24/16 A2985 RMK A01 T02400160  RH  061%=      5-min Rain = 0
KDO2 251835Z 03006KT 24/16 A2985 RMK A01 T02390160  RH  061%=      5-min Rain = 0
KDO2 251836Z 04008KT 24/16 A2985 RMK A01 T02390163  RH  062%=      5-min Rain = 0
KDO2 251837Z 05007KT 24/16 A2985 RMK A01 T02400158  RH  060%=      5-min Rain = 0
KDO2 251838Z 05008KT 24/16 A2985 RMK A01 T02390157  RH  060%=      5-min Rain = 0
KDO2 251839Z 05006KT 24/15 A2985 RMK A01 T02380154  RH  059%=      5-min Rain = 0
KDO2 251840Z 05006KT 24/16 A2985 RMK A01 T02380155  RH  059%=      5-min Rain = 0
KDO2 251841Z 05008KT 24/16 A2985 RMK A01 T02390163  RH  062%=      5-min Rain = 0
KDO2 251842Z 04008KT 24/16 A2985 RMK A01 T02400159  RH  061%=      5-min Rain = 0
KDO2 251843Z 02008KT 24/16 A2985 RMK A01 T02390157  RH  060%=      5-min Rain = 0
KDO2 251844Z 03009KT 24/16 A2985 RMK A01 T02390155  RH  059%=      5-min Rain = 0
KDO2 251845Z 03007KT 24/17 A2985 RMK A01 T02400165  RH  063%=      5-min Rain = 0
KDO2 251846Z 02006KT 24/17 A2985 RMK A01 T02410165  RH  062%=      5-min Rain = 0
KDO2 251847Z 03005KT 24/15 A2985 RMK A01 T02420154  RH  058%=      5-min Rain = 0
KDO2 251848Z 04009KT 24/16 A2985 RMK A01 T02420159  RH  060%=      5-min Rain = 0
KDO2 251849Z 05008KT 24/16 A2985 RMK A01 T02430159  RH  059%=      5-min Rain = 0
KDO2 251850Z 04008KT 24/16 A2985 RMK A01 T02430155  RH  058%=      5-min Rain = 0
KDO2 251851Z 04008KT 24/16 A2985 RMK A01 T02420156  RH  058%=      5-min Rain = 0
KDO2 251852Z 03007KT 24/15 A2985 RMK A01 T02420154  RH  058%=      5-min Rain = 0
KDO2 251853Z 04006KT 24/16 A2985 RMK A01 T02410155  RH  059%=      5-min Rain = 0
KDO2 251854Z 05008KT 24/16 A2985 RMK A01 T02420156  RH  059%=      5-min Rain = 0
KDO2 251855Z 05009KT 24/16 A2985 RMK A01 T02420156  RH  059%=      5-min Rain = 0
KDO2 251856Z 05008KT 24/16 A2985 RMK A01 T02410155  RH  058%=      5-min Rain = 0
KDO2 251857Z 06008KT 24/16 A2985 RMK A01 T02410158  RH  060%=      5-min Rain = 0
KDO2 251858Z 06007KT 24/16 A2985 RMK A01 T02420158  RH  060%=      5-min Rain = 0
KDO2 251859Z 07004KT 24/15 A2985 RMK A01 T02420148  RH  056%=      5-min Rain = 0
KDO2 251900Z 05005KT 24/15 A2985 RMK A01 T02400151  RH  057%=      5-min Rain = 0
KDO2 251901Z 03006KT 24/16 A2985 RMK A01 T02400164  RH  062%=      5-min Rain = 0
KDO2 251902Z 03005KT 24/16 A2985 RMK A01 T02410162  RH  061%=      5-min Rain = 0
KDO2 251903Z 04006KT 24/16 A2985 RMK A01 T02410160  RH  060%=      5-min Rain = 0
KDO2 251904Z 05007KT 24/15 A2985 RMK A01 T02410154  RH  058%=      5-min Rain = 0
KDO2 251905Z 06009KT 24/16 A2985 RMK A01 T02400159  RH  060%=      5-min Rain = 0
KDO2 251906Z 06009KT 24/16 A2985 RMK A01 T02400158  RH  060%=      5-min Rain = 0
KDO2 251907Z 06009KT 24/16 A2985 RMK A01 T02400155  RH  059%=      5-min Rain = 0
KDO2 251908Z 07007KT 24/15 A2985 RMK A01 T02390154  RH  059%=      5-min Rain = 0
KDO2 251909Z 06007KT 24/16 A2985 RMK A01 T02390155  RH  059%=      5-min Rain = 0
KDO2 251910Z 06006KT 24/16 A2985 RMK A01 T02390158  RH  061%=      5-min Rain = 0
KDO2 251911Z 07008KT 24/16 A2985 RMK A01 T02390157  RH  060%=      5-min Rain = 0
KDO2 251912Z 07011KT 24/16 A2984 RMK A01 T02390157  RH  060%=      5-min Rain = 0
KDO2 251913Z 06010KT 24/16 A2985 RMK A01 T02390161  RH  062%=      5-min Rain = 0
KDO2 251914Z 06009KT 24/16 A2985 RMK A01 T02390156  RH  060%=      5-min Rain = 0
KDO2 251915Z 06010KT 24/16 A2985 RMK A01 T02380158  RH  060%=      5-min Rain = 0
KDO2 251916Z 06011KT 24/16 A2985 RMK A01 T02380157  RH  061%=      5-min Rain = 0
KDO2 251917Z 05009KT 24/15 A2985 RMK A01 T02370154  RH  060%=      5-min Rain = 0
KDO2 251918Z 05009KT 24/16 A2985 RMK A01 T02370159  RH  062%=      5-min Rain = 0
KDO2 251919Z 06010KT 24/16 A2985 RMK A01 T02370163  RH  063%=      5-min Rain = 0
KDO2 251920Z 06011KT 24/16 A2985 RMK A01 T02370160  RH  062%=      5-min Rain = 0
KDO2 251921Z 06010KT 24/16 A2985 RMK A01 T02360155  RH  060%=      5-min Rain = 0
KDO2 251922Z 05009KT 24/16 A2985 RMK A01 T02360158  RH  061%=      5-min Rain = 0
KDO2 251923Z 05009KT 24/16 A2985 RMK A01 T02360155  RH  061%=      5-min Rain = 0
KDO2 251924Z 04011KT 24/16 A2985 RMK A01 T02360159  RH  062%=      5-min Rain = 0
KDO2 251925Z 04011KT 24/16 A2985 RMK A01 T02360157  RH  061%=      5-min Rain = 0
KDO2 251926Z 05009KT 24/16 A2985 RMK A01 T02350161  RH  063%=      5-min Rain = 0
KDO2 251927Z 06010KT 24/16 A2985 RMK A01 T02350161  RH  063%=      5-min Rain = 0
KDO2 251928Z 06010KT 24/16 A2984 RMK A01 T02360160  RH  063%=      5-min Rain = 0
KDO2 251929Z 05010KT 24/16 A2984 RMK A01 T02350162  RH  063%=      5-min Rain = 0
KDO2 251930Z 05009KT 24/16 A2984 RMK A01 T02350161  RH  063%=      5-min Rain = 0
KDO2 251931Z 05008KT 24/16 A2984 RMK A01 T02350160  RH  063%=      5-min Rain = 0
KDO2 251932Z 04009KT 24/16 A2984 RMK A01 T02350163  RH  064%=      5-min Rain = 0
KDO2 251933Z 05010KT 24/17 A2984 RMK A01 T02350165  RH  065%=      5-min Rain = 0
KDO2 251934Z 04010KT 24/16 A2984 RMK A01 T02350158  RH  062%=      5-min Rain = 0
KDO2 251935Z 04009KT 24/16 A2984 RMK A01 T02350158  RH  062%=      5-min Rain = 0
KDO2 251936Z 03009KT 24/16 A2984 RMK A01 T02350162  RH  064%=      5-min Rain = 0
KDO2 251937Z 03010KT 24/16 A2984 RMK A01 T02350161  RH  063%=      5-min Rain = 0
KDO2 251938Z 03010KT 24/16 A2984 RMK A01 T02350159  RH  062%=      5-min Rain = 0
KDO2 251939Z 04010KT 23/16 A2984 RMK A01 T02340160  RH  063%=      5-min Rain = 0
KDO2 251940Z 05010KT 24/16 A2984 RMK A01 T02350158  RH  062%=      5-min Rain = 0
KDO2 251941Z 04009KT 24/16 A2984 RMK A01 T02350160  RH  063%=      5-min Rain = 0
KDO2 251942Z 04009KT 24/16 A2984 RMK A01 T02350160  RH  062%=      5-min Rain = 0
KDO2 251943Z 04009KT 24/16 A2984 RMK A01 T02360162  RH  063%=      5-min Rain = 0
KDO2 251944Z 04010KT 24/16 A2984 RMK A01 T02360157  RH  061%=      5-min Rain = 0
KDO2 251945Z 05012KT 24/16 A2984 RMK A01 T02360160  RH  063%=      5-min Rain = 0
KDO2 251946Z 04011KT 24/16 A2984 RMK A01 T02360161  RH  063%=      5-min Rain = 0
KDO2 251947Z 05011KT 24/17 A2984 RMK A01 T02350166  RH  065%=      5-min Rain = 0
KDO2 251948Z 05012KT 24/16 A2984 RMK A01 T02360160  RH  062%=      5-min Rain = 0
KDO2 251949Z 04011KT 24/16 A2984 RMK A01 T02350162  RH  063%=      5-min Rain = 0
KDO2 251950Z 03011KT 24/16 A2984 RMK A01 T02350160  RH  063%=      5-min Rain = 0
KDO2 251951Z 04010KT 23/16 A2984 RMK A01 T02340162  RH  064%=      5-min Rain = 0
KDO2 251952Z 04012KT 23/16 A2984 RMK A01 T02340163  RH  064%=      5-min Rain = 0
KDO2 251953Z 04011KT 23/16 A2984 RMK A01 T02340158  RH  062%=      5-min Rain = 0
KDO2 251954Z 03010KT 23/16 A2984 RMK A01 T02330160  RH  064%=      5-min Rain = 0
KDO2 251955Z 03008KT 23/16 A2984 RMK A01 T02330163  RH  065%=      5-min Rain = 0
KDO2 251956Z 04008KT 23/16 A2984 RMK A01 T02330163  RH  065%=      5-min Rain = 0
KDO2 251957Z 04009KT 23/17 A2984 RMK A01 T02330165  RH  065%=      5-min Rain = 0
KDO2 251958Z 06010KT 23/17 A2984 RMK A01 T02340165  RH  065%=      5-min Rain = 0
KDO2 251959Z 05010KT 23/16 A2984 RMK A01 T02340161  RH  064%=      5-min Rain = 0
KDO2 252000Z 06010KT 23/16 A2984 RMK A01 T02340162  RH  064%=      5-min Rain = 0
KDO2 252001Z 06012KT 23/16 A2984 RMK A01 T02330162  RH  064%=      5-min Rain = 0
KDO2 252002Z 05011KT 23/16 A2984 RMK A01 T02330161  RH  064%=      5-min Rain = 0
KDO2 252003Z 05011KT 23/16 A2984 RMK A01 T02330159  RH  063%=      5-min Rain = 0
KDO2 252004Z 05010KT 23/16 A2984 RMK A01 T02330161  RH  064%=      5-min Rain = 0
KDO2 252005Z 05009KT 23/16 A2984 RMK A01 T02330161  RH  064%=      5-min Rain = 0
KDO2 252006Z 05008KT 23/16 A2984 RMK A01 T02330159  RH  063%=      5-min Rain = 0
KDO2 252007Z 05008KT 23/16 A2984 RMK A01 T02330161  RH  064%=      5-min Rain = 0
KDO2 252008Z 05007KT 23/16 A2984 RMK A01 T02330161  RH  064%=      5-min Rain = 0
KDO2 252009Z 05008KT 23/16 A2984 RMK A01 T02330164  RH  065%=      5-min Rain = 0
KDO2 252010Z 05007KT 23/16 A2984 RMK A01 T02340163  RH  064%=      5-min Rain = 0
KDO2 252011Z 06007KT 23/17 A2984 RMK A01 T02340165  RH  065%=      5-min Rain = 0
KDO2 252012Z 05008KT 23/16 A2984 RMK A01 T02340163  RH  064%=      5-min Rain = 0
KDO2 252013Z 06008KT 23/16 A2984 RMK A01 T02340163  RH  064%=      5-min Rain = 0
KDO2 252014Z 06008KT 23/17 A2984 RMK A01 T02340167  RH  066%=      5-min Rain = 0
KDO2 252015Z 06010KT 23/16 A2984 RMK A01 T02340163  RH  064%=      5-min Rain = 0
KDO2 252016Z 06009KT 23/16 A2984 RMK A01 T02340158  RH  062%=      5-min Rain = 0
KDO2 252017Z 06011KT 23/16 A2984 RMK A01 T02330160  RH  064%=      5-min Rain = 0
KDO2 252018Z 05009KT 23/16 A2984 RMK A01 T02330162  RH  064%=      5-min Rain = 0
KDO2 252019Z 06008KT 23/16 A2984 RMK A01 T02330162  RH  064%=      5-min Rain = 0
KDO2 252020Z 07007KT 23/17 A2984 RMK A01 T02330166  RH  066%=      5-min Rain = 0
KDO2 252021Z 07010KT 23/16 A2984 RMK A01 T02330162  RH  064%=      5-min Rain = 0
KDO2 252022Z 06009KT 23/16 A2984 RMK A01 T02330160  RH  064%=      5-min Rain = 0
KDO2 252023Z 06009KT 23/16 A2984 RMK A01 T02330160  RH  064%=      5-min Rain = 0
KDO2 252024Z 05008KT 23/16 A2984 RMK A01 T02330159  RH  063%=      5-min Rain = 0
KDO2 252025Z 05008KT 23/16 A2984 RMK A01 T02330162  RH  064%=      5-min Rain = 0
KDO2 252026Z 05010KT 23/16 A2984 RMK A01 T02330159  RH  063%=      5-min Rain = 0
KDO2 252027Z 06009KT 23/16 A2984 RMK A01 T02330159  RH  063%=      5-min Rain = 0
KDO2 252028Z 07009KT 23/16 A2984 RMK A01 T02330159  RH  063%=      5-min Rain = 0
KDO2 252029Z 07010KT 23/16 A2984 RMK A01 T02330161  RH  064%=      5-min Rain = 0
KDO2 252030Z 07009KT 23/16 A2984 RMK A01 T02330159  RH  063%=      5-min Rain = 0
KDO2 252031Z 07008KT 23/16 A2984 RMK A01 T02330159  RH  063%=      5-min Rain = 0
KDO2 252032Z 06008KT 23/16 A2984 RMK A01 T02330158  RH  063%=      5-min Rain = 0
KDO2 252033Z 05009KT 23/16 A2984 RMK A01 T02330156  RH  062%=      5-min Rain = 0
KDO2 252034Z 05008KT 23/15 A2984 RMK A01 T02330154  RH  061%=      5-min Rain = 0
KDO2 252035Z 07009KT 23/16 A2984 RMK A01 T02330155  RH  061%=      5-min Rain = 0
KDO2 252036Z 07006KT 23/16 A2984 RMK A01 T02330160  RH  063%=      5-min Rain = 0
KDO2 252037Z 07006KT 23/16 A2984 RMK A01 T02330162  RH  064%=      5-min Rain = 0
KDO2 252038Z 07006KT 23/16 A2984 RMK A01 T02330160  RH  063%=      5-min Rain = 0
KDO2 252039Z 07007KT 23/16 A2984 RMK A01 T02330162  RH  064%=      5-min Rain = 0
KDO2 252040Z 05007KT 23/16 A2984 RMK A01 T02330160  RH  063%=      5-min Rain = 0
KDO2 252041Z 05007KT 23/16 A2984 RMK A01 T02340162  RH  064%=      5-min Rain = 0
KDO2 252042Z 06006KT 23/16 A2984 RMK A01 T02340158  RH  062%=      5-min Rain = 0
KDO2 252043Z 05007KT 23/16 A2984 RMK A01 T02340161  RH  064%=      5-min Rain = 0
KDO2 252044Z 05007KT 23/16 A2984 RMK A01 T02340161  RH  064%=      5-min Rain = 0
KDO2 252045Z 05006KT 23/16 A2984 RMK A01 T02340163  RH  064%=      5-min Rain = 0
KDO2 252046Z 06007KT 23/16 A2984 RMK A01 T02340163  RH  064%=      5-min Rain = 0
KDO2 252047Z 06008KT 23/16 A2984 RMK A01 T02340161  RH  063%=      5-min Rain = 0
KDO2 252048Z 05007KT 23/16 A2984 RMK A01 T02340162  RH  064%=      5-min Rain = 0
KDO2 252049Z 04007KT 23/16 A2984 RMK A01 T02340162  RH  064%=      5-min Rain = 0
KDO2 252050Z 03009KT 23/16 A2984 RMK A01 T02340161  RH  063%=      5-min Rain = 0
KDO2 252051Z 04010KT 23/16 A2984 RMK A01 T02340159  RH  063%=      5-min Rain = 0
KDO2 252052Z 06007KT 23/16 A2984 RMK A01 T02340155  RH  061%=      5-min Rain = 0
KDO2 252053Z 06006KT 23/16 A2984 RMK A01 T02330159  RH  063%=      5-min Rain = 0
KDO2 252054Z 04006KT 23/16 A2984 RMK A01 T02340161  RH  064%=      5-min Rain = 0
KDO2 252055Z 04008KT 23/16 A2984 RMK A01 T02340158  RH  062%=      5-min Rain = 0
KDO2 252056Z 05007KT 23/16 A2984 RMK A01 T02340157  RH  062%=      5-min Rain = 0
KDO2 252057Z 04008KT 23/16 A2984 RMK A01 T02330156  RH  062%=      5-min Rain = 0
KDO2 252058Z 04008KT 23/16 A2984 RMK A01 T02340156  RH  062%=      5-min Rain = 0
KDO2 252059Z 04007KT 23/16 A2984 RMK A01 T02340158  RH  063%=      5-min Rain = 0
KDO2 252100Z 04007KT 23/16 A2984 RMK A01 T02340162  RH  064%=      5-min Rain = 0
KDO2 252101Z 05007KT 23/16 A2984 RMK A01 T02340160  RH  063%=      5-min Rain = 0
KDO2 252102Z 05007KT 24/16 A2984 RMK A01 T02350160  RH  063%=      5-min Rain = 0
KDO2 252103Z 05006KT 24/16 A2984 RMK A01 T02350161  RH  063%=      5-min Rain = 0
KDO2 252104Z 06007KT 24/16 A2984 RMK A01 T02350161  RH  063%=      5-min Rain = 0
KDO2 252105Z 05007KT 24/16 A2984 RMK A01 T02350160  RH  063%=      5-min Rain = 0
KDO2 252106Z 06006KT 24/16 A2984 RMK A01 T02350161  RH  064%=      5-min Rain = 0
KDO2 252107Z 06007KT 23/16 A2984 RMK A01 T02340157  RH  062%=      5-min Rain = 0
KDO2 252108Z 07007KT 24/16 A2984 RMK A01 T02350158  RH  062%=      5-min Rain = 0
KDO2 252109Z 07008KT 24/16 A2984 RMK A01 T02350156  RH  061%=      5-min Rain = 0
KDO2 252110Z 07007KT 24/16 A2984 RMK A01 T02350155  RH  061%=      5-min Rain = 0
KDO2 252111Z 07006KT 24/16 A2984 RMK A01 T02350155  RH  061%=      5-min Rain = 0
KDO2 252112Z 07006KT 24/16 A2984 RMK A01 T02350158  RH  062%=      5-min Rain = 0
KDO2 252113Z 06007KT 24/16 A2984 RMK A01 T02350156  RH  061%=      5-min Rain = 0
KDO2 252114Z 06006KT 23/16 A2984 RMK A01 T02340157  RH  062%=      5-min Rain = 0
KDO2 252115Z 06006KT 24/16 A2984 RMK A01 T02350156  RH  061%=      5-min Rain = 0
KDO2 252116Z 07005KT 23/16 A2984 RMK A01 T02340157  RH  062%=      5-min Rain = 0
KDO2 252117Z 06005KT 24/16 A2984 RMK A01 T02350158  RH  062%=      5-min Rain = 0
KDO2 252118Z 06006KT 23/16 A2984 RMK A01 T02340160  RH  063%=      5-min Rain = 0
KDO2 252119Z 05005KT 24/16 A2984 RMK A01 T02350159  RH  063%=      5-min Rain = 0
KDO2 252120Z 04006KT 24/16 A2984 RMK A01 T02350162  RH  064%=      5-min Rain = 0
KDO2 252121Z 04008KT 24/16 A2984 RMK A01 T02350155  RH  061%=      5-min Rain = 0
KDO2 252122Z 04006KT 24/16 A2984 RMK A01 T02350156  RH  061%=      5-min Rain = 0
KDO2 252123Z 04006KT 24/16 A2984 RMK A01 T02350156  RH  061%=      5-min Rain = 0
KDO2 252124Z 03006KT 24/15 A2984 RMK A01 T02350154  RH  060%=      5-min Rain = 0
KDO2 252125Z 05006KT 24/15 A2984 RMK A01 T02350154  RH  061%=      5-min Rain = 0
KDO2 252126Z 05005KT 24/16 A2984 RMK A01 T02350157  RH  062%=      5-min Rain = 0
KDO2 252127Z 04005KT 24/16 A2984 RMK A01 T02360159  RH  062%=      5-min Rain = 0
KDO2 252128Z 05005KT 24/16 A2984 RMK A01 T02360155  RH  061%=      5-min Rain = 0
KDO2 252129Z 05005KT 24/16 A2984 RMK A01 T02360159  RH  062%=      5-min Rain = 0
KDO2 252130Z 05007KT 24/16 A2984 RMK A01 T02370159  RH  062%=      5-min Rain = 0
KDO2 252131Z 05007KT 24/16 A2984 RMK A01 T02370155  RH  060%=      5-min Rain = 0
KDO2 252132Z 05006KT 24/16 A2984 RMK A01 T02370159  RH  061%=      5-min Rain = 0
KDO2 252133Z 05006KT 24/16 A2984 RMK A01 T02370157  RH  061%=      5-min Rain = 0
KDO2 252134Z 04005KT 24/16 A2984 RMK A01 T02370157  RH  061%=      5-min Rain = 0
KDO2 252135Z 02006KT 24/16 A2984 RMK A01 T02380157  RH  061%=      5-min Rain = 0
KDO2 252136Z 02007KT 24/15 A2984 RMK A01 T02380153  RH  059%=      5-min Rain = 0
KDO2 252137Z 03005KT 24/15 A2984 RMK A01 T02380154  RH  059%=      5-min Rain = 0
KDO2 252138Z 03005KT 24/16 A2984 RMK A01 T02380156  RH  060%=      5-min Rain = 0
KDO2 252139Z 04006KT 24/16 A2984 RMK A01 T02380156  RH  060%=      5-min Rain = 0
KDO2 252140Z 05007KT 24/16 A2984 RMK A01 T02380155  RH  060%=      5-min Rain = 0
KDO2 252141Z 04006KT 24/16 A2984 RMK A01 T02380155  RH  060%=      5-min Rain = 0
KDO2 252142Z 04006KT 24/16 A2984 RMK A01 T02380157  RH  060%=      5-min Rain = 0
KDO2 252143Z 05008KT 24/15 A2984 RMK A01 T02390153  RH  059%=      5-min Rain = 0
KDO2 252144Z 06008KT 24/15 A2984 RMK A01 T02390153  RH  059%=      5-min Rain = 0
KDO2 252145Z 06007KT 24/15 A2984 RMK A01 T02390154  RH  059%=      5-min Rain = 0
KDO2 252146Z 05008KT 24/15 A2984 RMK A01 T02390154  RH  059%=      5-min Rain = 0
KDO2 252147Z 04007KT 24/16 A2984 RMK A01 T02390155  RH  059%=      5-min Rain = 0
KDO2 252148Z 05007KT 24/15 A2983 RMK A01 T02390151  RH  058%=      5-min Rain = 0
KDO2 252149Z 05007KT 24/15 A2983 RMK A01 T02390152  RH  058%=      5-min Rain = 0
KDO2 252150Z 05007KT 24/16 A2984 RMK A01 T02390156  RH  060%=      5-min Rain = 0
KDO2 252151Z 04009KT 24/16 A2983 RMK A01 T02390156  RH  059%=      5-min Rain = 0
KDO2 252152Z 05008KT 24/16 A2984 RMK A01 T02390155  RH  059%=      5-min Rain = 0
KDO2 252153Z 05006KT 24/15 A2984 RMK A01 T02390153  RH  059%=      5-min Rain = 0
KDO2 252154Z 03006KT 24/15 A2984 RMK A01 T02390154  RH  059%=      5-min Rain = 0
KDO2 252155Z 03005KT 24/15 A2984 RMK A01 T02390151  RH  058%=      5-min Rain = 0
KDO2 252156Z 04006KT 24/16 A2984 RMK A01 T02390155  RH  059%=      5-min Rain = 0
KDO2 252157Z 04007KT 24/15 A2983 RMK A01 T02400154  RH  059%=      5-min Rain = 0
KDO2 252158Z 05007KT 24/15 A2983 RMK A01 T02400154  RH  059%=      5-min Rain = 0
KDO2 252159Z 03006KT 24/16 A2983 RMK A01 T02400155  RH  059%=      5-min Rain = 0
KDO2 252200Z 04006KT 24/15 A2983 RMK A01 T02400152  RH  058%=      5-min Rain = 0
KDO2 252201Z 04004KT 24/15 A2983 RMK A01 T02400150  RH  057%=      5-min Rain = 0
KDO2 252202Z 04003KT 24/15 A2983 RMK A01 T02390152  RH  058%=      5-min Rain = 0
KDO2 252203Z 03007KT 24/16 A2983 RMK A01 T02390158  RH  060%=      5-min Rain = 0
KDO2 252204Z 02008KT 24/16 A2983 RMK A01 T02410156  RH  059%=      5-min Rain = 0
KDO2 252205Z 02006KT 24/15 A2983 RMK A01 T02410151  RH  057%=      5-min Rain = 0
KDO2 252206Z 03005KT 24/15 A2983 RMK A01 T02410150  RH  057%=      5-min Rain = 0
KDO2 252207Z 03004KT 24/15 A2983 RMK A01 T02410152  RH  057%=      5-min Rain = 0
KDO2 252208Z 06006KT 24/16 A2983 RMK A01 T02410157  RH  059%=      5-min Rain = 0
KDO2 252209Z 07007KT 24/15 A2983 RMK A01 T02420154  RH  058%=      5-min Rain = 0
KDO2 252210Z 07007KT 24/15 A2983 RMK A01 T02420151  RH  057%=      5-min Rain = 0
KDO2 252211Z 06007KT 24/15 A2983 RMK A01 T02410151  RH  057%=      5-min Rain = 0
KDO2 252212Z 07005KT 24/15 A2983 RMK A01 T02410151  RH  057%=      5-min Rain = 0
KDO2 252213Z 06005KT 24/15 A2984 RMK A01 T02410150  RH  057%=      5-min Rain = 0
KDO2 252214Z 06006KT 24/15 A2984 RMK A01 T02400154  RH  058%=      5-min Rain = 0
KDO2 252215Z 05007KT 24/15 A2984 RMK A01 T02410150  RH  057%=      5-min Rain = 0
KDO2 252216Z 05006KT 24/15 A2984 RMK A01 T02410152  RH  058%=      5-min Rain = 0
KDO2 252217Z 05004KT 24/15 A2984 RMK A01 T02410149  RH  056%=      5-min Rain = 0
KDO2 252218Z 04004KT 24/15 A2984 RMK A01 T02410147  RH  056%=      5-min Rain = 0
KDO2 252219Z 03005KT 24/15 A2984 RMK A01 T02400149  RH  057%=      5-min Rain = 0
KDO2 252220Z 04004KT 24/15 A2984 RMK A01 T02400153  RH  058%=      5-min Rain = 0
KDO2 252221Z 05004KT 24/15 A2984 RMK A01 T02410147  RH  055%=      5-min Rain = 0
KDO2 252222Z 03005KT 24/15 A2984 RMK A01 T02410148  RH  056%=      5-min Rain = 0
KDO2 252223Z 02006KT 24/15 A2984 RMK A01 T02410149  RH  057%=      5-min Rain = 0
KDO2 252224Z 05008KT 24/15 A2984 RMK A01 T02410150  RH  057%=      5-min Rain = 0
KDO2 252225Z 06007KT 24/15 A2984 RMK A01 T02410147  RH  056%=      5-min Rain = 0
KDO2 252226Z 06007KT 24/15 A2984 RMK A01 T02410147  RH  056%=      5-min Rain = 0
KDO2 252227Z 05007KT 24/15 A2984 RMK A01 T02410149  RH  056%=      5-min Rain = 0
KDO2 252228Z 05006KT 24/15 A2984 RMK A01 T02420150  RH  057%=      5-min Rain = 0
KDO2 252229Z 06005KT 24/15 A2984 RMK A01 T02420150  RH  057%=      5-min Rain = 0
KDO2 252230Z 07005KT 24/15 A2984 RMK A01 T02420151  RH  057%=      5-min Rain = 0
KDO2 252231Z 06005KT 24/15 A2984 RMK A01 T02420150  RH  056%=      5-min Rain = 0
KDO2 252232Z 07005KT 24/15 A2984 RMK A01 T02420149  RH  056%=      5-min Rain = 0
KDO2 252233Z 07004KT 24/15 A2984 RMK A01 T02420145  RH  054%=      5-min Rain = 0
KDO2 252234Z 08003KT 24/14 A2984 RMK A01 T02420144  RH  054%=      5-min Rain = 0
KDO2 252235Z 08003KT 24/15 A2984 RMK A01 T02410147  RH  055%=      5-min Rain = 0
KDO2 252236Z 06004KT 24/15 A2984 RMK A01 T02420151  RH  057%=      5-min Rain = 0
KDO2 252237Z 07006KT 24/15 A2984 RMK A01 T02430153  RH  057%=      5-min Rain = 0
KDO2 252238Z 05005KT 24/16 A2984 RMK A01 T02440155  RH  058%=      5-min Rain = 0
KDO2 252239Z 05004KT 25/15 A2984 RMK A01 T02450145  RH  054%=      5-min Rain = 0
KDO2 252240Z 05004KT 25/15 A2984 RMK A01 T02450147  RH  054%=      5-min Rain = 0
KDO2 252241Z 05006KT 25/15 A2984 RMK A01 T02450154  RH  057%=      5-min Rain = 0
KDO2 252242Z 05005KT 25/15 A2984 RMK A01 T02450151  RH  056%=      5-min Rain = 0
KDO2 252243Z 03004KT 25/15 A2984 RMK A01 T02450147  RH  054%=      5-min Rain = 0
KDO2 252244Z 04004KT 24/15 A2983 RMK A01 T02440146  RH  054%=      5-min Rain = 0
KDO2 252245Z 05005KT 24/15 A2983 RMK A01 T02440151  RH  056%=      5-min Rain = 0
KDO2 252246Z 07006KT 24/15 A2983 RMK A01 T02440152  RH  056%=      5-min Rain = 0
KDO2 252247Z 07006KT 25/15 A2983 RMK A01 T02450151  RH  056%=      5-min Rain = 0
KDO2 252248Z 08005KT 25/16 A2983 RMK A01 T02460156  RH  057%=      5-min Rain = 0
KDO2 252249Z 10004KT 25/16 A2983 RMK A01 T02480155  RH  056%=      5-min Rain = 0
KDO2 252250Z 09004KT 25/15 A2983 RMK A01 T02490149  RH  054%=      5-min Rain = 0
KDO2 252251Z 08003KT 25/15 A2983 RMK A01 T02480149  RH  054%=      5-min Rain = 0
KDO2 252252Z 08004KT 25/15 A2983 RMK A01 T02470153  RH  056%=      5-min Rain = 0
KDO2 252253Z 09007KT 25/16 A2983 RMK A01 T02470155  RH  057%=      5-min Rain = 0
KDO2 252254Z 09005KT 25/15 A2983 RMK A01 T02470148  RH  054%=      5-min Rain = 0
KDO2 252255Z 08005KT 25/15 A2983 RMK A01 T02460151  RH  056%=      5-min Rain = 0
KDO2 252256Z 08005KT 25/15 A2983 RMK A01 T02450150  RH  055%=      5-min Rain = 0
KDO2 252257Z 07002KT 25/15 A2983 RMK A01 T02450149  RH  055%=      5-min Rain = 0
KDO2 252258Z 08004KT 24/15 A2983 RMK A01 T02440151  RH  056%=      5-min Rain = 0
KDO2 252259Z 08005KT 24/15 A2983 RMK A01 T02440152  RH  056%=      5-min Rain = 0
KDO2 252300Z 08006KT 25/15 A2983 RMK A01 T02450152  RH  056%=      5-min Rain = 0
KDO2 252301Z 07007KT 25/15 A2983 RMK A01 T02450154  RH  057%=      5-min Rain = 0
KDO2 252302Z 07006KT 25/15 A2983 RMK A01 T02460151  RH  055%=      5-min Rain = 0
KDO2 252303Z 07006KT 25/16 A2983 RMK A01 T02460155  RH  057%=      5-min Rain = 0
KDO2 252304Z 08005KT 25/15 A2983 RMK A01 T02450153  RH  056%=      5-min Rain = 0
KDO2 252305Z 09005KT 25/15 A2983 RMK A01 T02450147  RH  054%=      5-min Rain = 0
KDO2 252306Z 08005KT 24/15 A2983 RMK A01 T02440145  RH  054%=      5-min Rain = 0
KDO2 252307Z 07003KT 24/15 A2983 RMK A01 T02440148  RH  055%=      5-min Rain = 0
KDO2 252308Z 07003KT 24/15 A2983 RMK A01 T02440150  RH  056%=      5-min Rain = 0
KDO2 252309Z 07004KT 24/15 A2983 RMK A01 T02440148  RH  055%=      5-min Rain = 0
KDO2 252310Z 06003KT 24/15 A2983 RMK A01 T02440147  RH  055%=      5-min Rain = 0
KDO2 252311Z 07002KT 24/15 A2983 RMK A01 T02440145  RH  054%=      5-min Rain = 0
KDO2 252312Z 07002KT 24/15 A2983 RMK A01 T02440146  RH  054%=      5-min Rain = 0
KDO2 252313Z 08003KT 24/15 A2983 RMK A01 T02440150  RH  056%=      5-min Rain = 0
KDO2 252314Z 08003KT 25/15 A2983 RMK A01 T02450148  RH  055%=      5-min Rain = 0
KDO2 252315Z 06002KT 25/15 A2983 RMK A01 T02450150  RH  055%=      5-min Rain = 0
KDO2 252316Z 04002KT 25/15 A2983 RMK A01 T02450150  RH  055%=      5-min Rain = 0
KDO2 252317Z 06003KT 25/15 A2983 RMK A01 T02450152  RH  056%=      5-min Rain = 0
KDO2 252318Z 08005KT 25/15 A2983 RMK A01 T02460147  RH  054%=      5-min Rain = 0
KDO2 252319Z 08006KT 25/15 A2983 RMK A01 T02460147  RH  054%=      5-min Rain = 0
KDO2 252320Z 07006KT 25/15 A2983 RMK A01 T02460146  RH  054%=      5-min Rain = 0
KDO2 252321Z 07005KT 25/15 A2983 RMK A01 T02450148  RH  054%=      5-min Rain = 0
KDO2 252322Z 06004KT 25/15 A2983 RMK A01 T02460146  RH  054%=      5-min Rain = 0
KDO2 252323Z 07004KT 25/15 A2983 RMK A01 T02450150  RH  055%=      5-min Rain = 0
KDO2 252324Z 06007KT 25/15 A2983 RMK A01 T02450150  RH  055%=      5-min Rain = 0
KDO2 252325Z 06006KT 25/15 A2983 RMK A01 T02460146  RH  054%=      5-min Rain = 0
KDO2 252326Z 06006KT 25/15 A2983 RMK A01 T02460148  RH  055%=      5-min Rain = 0
KDO2 252327Z 07005KT 25/15 A2983 RMK A01 T02460147  RH  054%=      5-min Rain = 0
KDO2 252328Z 04005KT 25/15 A2983 RMK A01 T02450149  RH  055%=      5-min Rain = 0
KDO2 252329Z 03005KT 25/15 A2983 RMK A01 T02450146  RH  054%=      5-min Rain = 0
KDO2 252330Z 03004KT 25/15 A2983 RMK A01 T02450146  RH  054%=      5-min Rain = 0
KDO2 252331Z 00005KT 25/15 A2983 RMK A01 T02450150  RH  055%=      5-min Rain = 0
KDO2 252332Z 01003KT 25/15 A2983 RMK A01 T02460150  RH  055%=      5-min Rain = 0
KDO2 252333Z 04004KT 25/15 A2983 RMK A01 T02470148  RH  054%=      5-min Rain = 0
KDO2 252334Z 02006KT 25/15 A2983 RMK A01 T02470150  RH  055%=      5-min Rain = 0
KDO2 252335Z 02006KT 25/15 A2983 RMK A01 T02470148  RH  054%=      5-min Rain = 0
KDO2 252336Z 02005KT 25/15 A2983 RMK A01 T02460145  RH  053%=      5-min Rain = 0
KDO2 252337Z 03006KT 25/15 A2983 RMK A01 T02460150  RH  055%=      5-min Rain = 0
KDO2 252338Z 03007KT 25/15 A2983 RMK A01 T02450147  RH  054%=      5-min Rain = 0
KDO2 252339Z 03006KT 24/15 A2983 RMK A01 T02440145  RH  054%=      5-min Rain = 0
KDO2 252340Z 04006KT 24/15 A2983 RMK A01 T02440151  RH  056%=      5-min Rain = 0
KDO2 252341Z 03005KT 24/15 A2983 RMK A01 T02440147  RH  055%=      5-min Rain = 0
KDO2 252342Z 02004KT 24/15 A2983 RMK A01 T02430145  RH  054%=      5-min Rain = 0
KDO2 252343Z 02005KT 24/15 A2983 RMK A01 T02430149  RH  056%=      5-min Rain = 0
KDO2 252344Z 03006KT 24/15 A2983 RMK A01 T02430150  RH  056%=      5-min Rain = 0
KDO2 252345Z 03005KT 24/15 A2983 RMK A01 T02430152  RH  057%=      5-min Rain = 0
KDO2 252346Z 02004KT 24/15 A2983 RMK A01 T02430146  RH  055%=      5-min Rain = 0
KDO2 252347Z 02004KT 24/15 A2983 RMK A01 T02430146  RH  055%=      5-min Rain = 0
KDO2 252348Z 01003KT 24/14 A2983 RMK A01 T02430144  RH  054%=      5-min Rain = 0
KDO2 252349Z 03003KT 24/14 A2983 RMK A01 T02420142  RH  054%=      5-min Rain = 0
KDO2 252350Z 04002KT 24/15 A2983 RMK A01 T02430145  RH  054%=      5-min Rain = 0
KDO2 252351Z 06002KT 24/15 A2983 RMK A01 T02420148  RH  056%=      5-min Rain = 0
KDO2 252352Z 06002KT 24/15 A2983 RMK A01 T02420145  RH  055%=      5-min Rain = 0
KDO2 252353Z 06002KT 24/15 A2983 RMK A01 T02420147  RH  055%=      5-min Rain = 0
KDO2 252354Z 07003KT 24/15 A2983 RMK A01 T02420149  RH  056%=      5-min Rain = 0
KDO2 252355Z 06005KT 24/15 A2983 RMK A01 T02420151  RH  057%=      5-min Rain = 0
KDO2 252356Z 07005KT 24/15 A2983 RMK A01 T02420147  RH  055%=      5-min Rain = 0
KDO2 252357Z 06004KT 24/15 A2983 RMK A01 T02420150  RH  056%=      5-min Rain = 0
KDO2 252358Z 06004KT 24/15 A2983 RMK A01 T02420148  RH  055%=      5-min Rain = 0
KDO2 252359Z 06003KT 24/15 A2983 RMK A01 T02420148  RH  056%=      5-min Rain = 0
KDO2 260000Z 06003KT 24/15 A2983 RMK A01 T02430149  RH  056%=      5-min Rain = 0
KDO2 260001Z 05003KT 24/15 A2983 RMK A01 T02420147  RH  055%=      5-min Rain = 0
KDO2 260002Z 05003KT 24/15 A2983 RMK A01 T02420148  RH  056%=      5-min Rain = 0
KDO2 260003Z 05002KT 24/15 A2984 RMK A01 T02420146  RH  055%=      5-min Rain = 0
KDO2 260004Z 04002KT 24/15 A2984 RMK A01 T02420147  RH  055%=      5-min Rain = 0
KDO2 260005Z 05003KT 24/15 A2984 RMK A01 T02430151  RH  057%=      5-min Rain = 0
KDO2 260006Z 04004KT 24/15 A2984 RMK A01 T02420151  RH  057%=      5-min Rain = 0
KDO2 260007Z 08003KT 24/16 A2984 RMK A01 T02420155  RH  058%=      5-min Rain = 0
KDO2 260008Z 09003KT 24/16 A2984 RMK A01 T02420156  RH  058%=      5-min Rain = 0
KDO2 260009Z 10004KT 24/15 A2984 RMK A01 T02420152  RH  057%=      5-min Rain = 0
KDO2 260010Z 09004KT 24/15 A2984 RMK A01 T02420151  RH  057%=      5-min Rain = 0
KDO2 260011Z 09004KT 24/15 A2984 RMK A01 T02420154  RH  058%=      5-min Rain = 0
KDO2 260012Z 10004KT 24/16 A2984 RMK A01 T02420155  RH  058%=      5-min Rain = 0
KDO2 260013Z 08003KT 24/16 A2984 RMK A01 T02420155  RH  058%=      5-min Rain = 0
KDO2 260014Z 07003KT 24/16 A2984 RMK A01 T02430155  RH  058%=      5-min Rain = 0
KDO2 260015Z 08003KT 24/15 A2984 RMK A01 T02420145  RH  055%=      5-min Rain = 0
KDO2 260016Z 06002KT 24/15 A2984 RMK A01 T02430148  RH  056%=      5-min Rain = 0
KDO2 260017Z 05003KT 24/15 A2984 RMK A01 T02420151  RH  057%=      5-min Rain = 0
KDO2 260018Z 06003KT 24/15 A2984 RMK A01 T02430149  RH  056%=      5-min Rain = 0
KDO2 260019Z 05003KT 24/15 A2984 RMK A01 T02430150  RH  056%=      5-min Rain = 0
KDO2 260020Z 06003KT 24/15 A2984 RMK A01 T02420151  RH  057%=      5-min Rain = 0
KDO2 260021Z 06003KT 24/15 A2984 RMK A01 T02420152  RH  057%=      5-min Rain = 0
KDO2 260022Z 06003KT 24/15 A2984 RMK A01 T02420152  RH  057%=      5-min Rain = 0
KDO2 260023Z 08003KT 24/15 A2984 RMK A01 T02420150  RH  056%=      5-min Rain = 0
KDO2 260024Z 09003KT 24/16 A2984 RMK A01 T02420155  RH  058%=      5-min Rain = 0
KDO2 260025Z 10003KT 24/15 A2984 RMK A01 T02420151  RH  057%=      5-min Rain = 0
KDO2 260026Z 10003KT 24/15 A2984 RMK A01 T02410152  RH  057%=      5-min Rain = 0
KDO2 260027Z 09002KT 24/16 A2984 RMK A01 T02420155  RH  058%=      5-min Rain = 0
KDO2 260028Z 09003KT 24/15 A2984 RMK A01 T02410154  RH  058%=      5-min Rain = 0
KDO2 260029Z 09002KT 24/15 A2984 RMK A01 T02410151  RH  057%=      5-min Rain = 0
KDO2 260030Z 09002KT 24/15 A2984 RMK A01 T02410150  RH  057%=      5-min Rain = 0
KDO2 260031Z 09002KT 24/15 A2984 RMK A01 T02410151  RH  057%=      5-min Rain = 0
KDO2 260032Z 09002KT 24/15 A2984 RMK A01 T02410151  RH  057%=      5-min Rain = 0
KDO2 260033Z 09001KT 24/15 A2984 RMK A01 T02410150  RH  057%=      5-min Rain = 0
KDO2 260034Z 07001KT 24/15 A2984 RMK A01 T02410153  RH  058%=      5-min Rain = 0
KDO2 260035Z 08002KT 24/15 A2984 RMK A01 T02410152  RH  058%=      5-min Rain = 0
KDO2 260036Z 07002KT 24/15 A2984 RMK A01 T02410150  RH  057%=      5-min Rain = 0
KDO2 260037Z 05002KT 24/15 A2984 RMK A01 T02410153  RH  058%=      5-min Rain = 0
KDO2 260038Z 04002KT 24/15 A2984 RMK A01 T02410152  RH  058%=      5-min Rain = 0
KDO2 260039Z 05002KT 24/16 A2984 RMK A01 T02410158  RH  060%=      5-min Rain = 0
KDO2 260040Z 05003KT 24/16 A2984 RMK A01 T02410157  RH  059%=      5-min Rain = 0
KDO2 260041Z 04003KT 24/16 A2984 RMK A01 T02410155  RH  059%=      5-min Rain = 0
KDO2 260042Z 05003KT 24/16 A2984 RMK A01 T02400159  RH  060%=      5-min Rain = 0
KDO2 260043Z 04003KT 24/16 A2984 RMK A01 T02400159  RH  061%=      5-min Rain = 0
KDO2 260044Z 05003KT 24/16 A2984 RMK A01 T02400161  RH  061%=      5-min Rain = 0
KDO2 260045Z 05003KT 24/16 A2984 RMK A01 T02390161  RH  062%=      5-min Rain = 0
KDO2 260046Z 04002KT 24/16 A2984 RMK A01 T02390156  RH  060%=      5-min Rain = 0
KDO2 260047Z 05002KT 24/16 A2984 RMK A01 T02390156  RH  060%=      5-min Rain = 0
KDO2 260048Z 05002KT 24/16 A2984 RMK A01 T02390158  RH  061%=      5-min Rain = 0
KDO2 260049Z 05002KT 24/16 A2984 RMK A01 T02390162  RH  062%=      5-min Rain = 0
KDO2 260050Z 05002KT 24/16 A2984 RMK A01 T02380161  RH  062%=      5-min Rain = 0
KDO2 260051Z 05003KT 24/16 A2984 RMK A01 T02380159  RH  061%=      5-min Rain = 0
KDO2 260052Z 05003KT 24/16 A2984 RMK A01 T02380156  RH  060%=      5-min Rain = 0
KDO2 260053Z 06003KT 24/16 A2984 RMK A01 T02380160  RH  061%=      5-min Rain = 0
KDO2 260054Z 05003KT 24/16 A2984 RMK A01 T02380162  RH  062%=      5-min Rain = 0
KDO2 260055Z 06003KT 24/16 A2984 RMK A01 T02380159  RH  061%=      5-min Rain = 0
KDO2 260056Z 06003KT 24/16 A2984 RMK A01 T02380157  RH  060%=      5-min Rain = 0
KDO2 260057Z 06003KT 24/16 A2984 RMK A01 T02380160  RH  062%=      5-min Rain = 0
KDO2 260058Z 06003KT 24/16 A2984 RMK A01 T02380161  RH  062%=      5-min Rain = 0
KDO2 260059Z 06003KT 24/16 A2984 RMK A01 T02370160  RH  062%=      5-min Rain = 0
KDO2 260100Z 06003KT 24/16 A2984 RMK A01 T02370162  RH  063%=      5-min Rain = 0
KDO2 260101Z 06002KT 24/16 A2984 RMK A01 T02370162  RH  063%=      5-min Rain = 0
KDO2 260102Z 06002KT 24/17 A2984 RMK A01 T02370165  RH  064%=      5-min Rain = 0
KDO2 260103Z 06003KT 24/17 A2984 RMK A01 T02360167  RH  065%=      5-min Rain = 0
KDO2 260104Z 07002KT 24/16 A2984 RMK A01 T02360164  RH  064%=      5-min Rain = 0
KDO2 260105Z 07002KT 24/16 A2984 RMK A01 T02360164  RH  064%=      5-min Rain = 0
KDO2 260106Z 07003KT 24/17 A2984 RMK A01 T02360168  RH  066%=      5-min Rain = 0
KDO2 260107Z 08003KT 24/17 A2984 RMK A01 T02360169  RH  066%=      5-min Rain = 0
KDO2 260108Z 08003KT 24/17 A2984 RMK A01 T02360168  RH  066%=      5-min Rain = 0
KDO2 260109Z 08003KT 24/17 A2984 RMK A01 T02350170  RH  067%=      5-min Rain = 0
KDO2 260110Z 08003KT 24/17 A2985 RMK A01 T02350170  RH  067%=      5-min Rain = 0
KDO2 260111Z 08003KT 23/17 A2985 RMK A01 T02340169  RH  067%=      5-min Rain = 0
KDO2 260112Z 09003KT 23/17 A2985 RMK A01 T02340168  RH  066%=      5-min Rain = 0
KDO2 260113Z 09003KT 23/17 A2985 RMK A01 T02340168  RH  066%=      5-min Rain = 0
KDO2 260114Z 09003KT 23/17 A2985 RMK A01 T02340170  RH  067%=      5-min Rain = 0
KDO2 260115Z 09002KT 23/17 A2985 RMK A01 T02340174  RH  069%=      5-min Rain = 0
KDO2 260116Z 09002KT 23/17 A2985 RMK A01 T02340174  RH  069%=      5-min Rain = 0
KDO2 260117Z 10002KT 23/17 A2986 RMK A01 T02330173  RH  069%=      5-min Rain = 0
KDO2 260118Z 10002KT 23/18 A2986 RMK A01 T02330176  RH  070%=      5-min Rain = 0
KDO2 260119Z 10003KT 23/18 A2986 RMK A01 T02330175  RH  069%=      5-min Rain = 0
KDO2 260120Z 10003KT 23/17 A2986 RMK A01 T02330173  RH  069%=      5-min Rain = 0
KDO2 260121Z 09003KT 23/18 A2986 RMK A01 T02330175  RH  070%=      5-min Rain = 0
KDO2 260122Z 09003KT 23/17 A2986 RMK A01 T02330171  RH  068%=      5-min Rain = 0
KDO2 260123Z 09003KT 23/17 A2985 RMK A01 T02330169  RH  067%=      5-min Rain = 0
KDO2 260124Z 09003KT 23/17 A2985 RMK A01 T02320168  RH  067%=      5-min Rain = 0
KDO2 260125Z 09003KT 23/17 A2985 RMK A01 T02320169  RH  067%=      5-min Rain = 0
KDO2 260126Z 09003KT 23/17 A2986 RMK A01 T02320170  RH  068%=      5-min Rain = 0
KDO2 260127Z 09003KT 23/17 A2986 RMK A01 T02320168  RH  067%=      5-min Rain = 0
KDO2 260128Z 09003KT 23/17 A2986 RMK A01 T02310168  RH  068%=      5-min Rain = 0
KDO2 260129Z 10003KT 23/17 A2986 RMK A01 T02320171  RH  069%=      5-min Rain = 0
KDO2 260130Z 10003KT 23/17 A2986 RMK A01 T02310172  RH  069%=      5-min Rain = 0
KDO2 260131Z 10003KT 23/17 A2986 RMK A01 T02300172  RH  069%=      5-min Rain = 0
KDO2 260132Z 10003KT 23/17 A2986 RMK A01 T02300173  RH  070%=      5-min Rain = 0
KDO2 260133Z 10003KT 23/17 A2986 RMK A01 T02290171  RH  070%=      5-min Rain = 0
KDO2 260134Z 11003KT 23/17 A2986 RMK A01 T02290172  RH  070%=      5-min Rain = 0
KDO2 260135Z 11003KT 23/17 A2987 RMK A01 T02290173  RH  071%=      5-min Rain = 0
KDO2 260136Z 13003KT 23/17 A2987 RMK A01 T02280174  RH  071%=      5-min Rain = 0
KDO2 260137Z 13003KT 23/18 A2987 RMK A01 T02280176  RH  072%=      5-min Rain = 0
KDO2 260138Z 13003KT 23/18 A2987 RMK A01 T02270178  RH  074%=      5-min Rain = 0
KDO2 260139Z 13003KT 23/18 A2987 RMK A01 T02270178  RH  074%=      5-min Rain = 0
KDO2 260140Z 12003KT 23/18 A2987 RMK A01 T02260179  RH  075%=      5-min Rain = 0
KDO2 260141Z 12003KT 23/18 A2987 RMK A01 T02260181  RH  076%=      5-min Rain = 0
KDO2 260142Z 11003KT 23/18 A2987 RMK A01 T02260179  RH  075%=      5-min Rain = 0
KDO2 260143Z 11002KT 23/17 A2987 RMK A01 T02250174  RH  073%=      5-min Rain = 0
KDO2 260144Z 11002KT 23/17 A2987 RMK A01 T02250174  RH  073%=      5-min Rain = 0
KDO2 260145Z 11002KT 23/17 A2987 RMK A01 T02250172  RH  072%=      5-min Rain = 0
KDO2 260146Z 11002KT 23/17 A2987 RMK A01 T02250172  RH  072%=      5-min Rain = 0
KDO2 260147Z 11002KT 23/17 A2987 RMK A01 T02250174  RH  073%=      5-min Rain = 0
KDO2 260148Z 11002KT 23/18 A2987 RMK A01 T02250175  RH  073%=      5-min Rain = 0
KDO2 260149Z 11002KT 23/18 A2986 RMK A01 T02250176  RH  074%=      5-min Rain = 0
KDO2 260150Z 11003KT 22/18 A2986 RMK A01 T02240177  RH  075%=      5-min Rain = 0
KDO2 260151Z 11003KT 22/18 A2986 RMK A01 T02230178  RH  075%=      5-min Rain = 0
KDO2 260152Z 11003KT 22/18 A2986 RMK A01 T02230179  RH  076%=      5-min Rain = 0
KDO2 260153Z 11002KT 22/18 A2986 RMK A01 T02220177  RH  075%=      5-min Rain = 0
KDO2 260154Z 11002KT 22/17 A2986 RMK A01 T02210174  RH  075%=      5-min Rain = 0
KDO2 260155Z 12002KT 22/17 A2986 RMK A01 T02210173  RH  074%=      5-min Rain = 0
KDO2 260156Z 13002KT 22/17 A2986 RMK A01 T02210174  RH  074%=      5-min Rain = 0
KDO2 260157Z 13002KT 22/18 A2987 RMK A01 T02220177  RH  076%=      5-min Rain = 0
KDO2 260158Z 14002KT 22/18 A2987 RMK A01 T02210178  RH  076%=      5-min Rain = 0
KDO2 260159Z 14002KT 22/17 A2987 RMK A01 T02200174  RH  075%=      5-min Rain = 0
KDO2 260200Z 14001KT 22/17 A2987 RMK A01 T02200171  RH  074%=      5-min Rain = 0
KDO2 260201Z 14001KT 22/17 A2987 RMK A01 T02200173  RH  075%=      5-min Rain = 0
KDO2 260202Z 14000KT 22/17 A2987 RMK A01 T02200172  RH  074%=      5-min Rain = 0
KDO2 260203Z 00000KT 22/17 A2987 RMK A01 T02200171  RH  074%=      5-min Rain = 0
KDO2 260204Z 00000KT 22/17 A2987 RMK A01 T02210170  RH  073%=      5-min Rain = 0
KDO2 260205Z 00000KT 22/17 A2987 RMK A01 T02210171  RH  073%=      5-min Rain = 0
KDO2 260206Z 00000KT 22/17 A2987 RMK A01 T02220171  RH  073%=      5-min Rain = 0
KDO2 260207Z 00000KT 22/17 A2987 RMK A01 T02220172  RH  073%=      5-min Rain = 0
KDO2 260208Z 00000KT 22/17 A2987 RMK A01 T02220172  RH  074%=      5-min Rain = 0
KDO2 260209Z 21000KT 22/17 A2987 RMK A01 T02220173  RH  074%=      5-min Rain = 0
KDO2 260210Z 21001KT 22/17 A2988 RMK A01 T02220174  RH  074%=      5-min Rain = 0
KDO2 260211Z 25002KT 22/18 A2988 RMK A01 T02210183  RH  079%=      5-min Rain = 0
KDO2 260212Z 26002KT 22/18 A2988 RMK A01 T02190183  RH  080%=      5-min Rain = 0
KDO2 260213Z 27003KT 22/18 A2988 RMK A01 T02160184  RH  082%=      5-min Rain = 0
KDO2 260214Z 27003KT 21/18 A2988 RMK A01 T02140184  RH  083%=      5-min Rain = 0
KDO2 260215Z 26002KT 21/18 A2988 RMK A01 T02120183  RH  083%=      5-min Rain = 0
KDO2 260216Z 25002KT 21/18 A2988 RMK A01 T02110181  RH  083%=      5-min Rain = 0
KDO2 260217Z 26003KT 21/18 A2988 RMK A01 T02110181  RH  083%=      5-min Rain = 0
KDO2 260218Z 26003KT 21/18 A2988 RMK A01 T02100180  RH  083%=      5-min Rain = 0
KDO2 260219Z 26003KT 21/18 A2988 RMK A01 T02100180  RH  083%=      5-min Rain = 0
KDO2 260220Z 26003KT 21/18 A2988 RMK A01 T02090180  RH  083%=      5-min Rain = 0
KDO2 260221Z 26003KT 21/18 A2988 RMK A01 T02090180  RH  083%=      5-min Rain = 0
KDO2 260222Z 26003KT 21/18 A2989 RMK A01 T02100181  RH  083%=      5-min Rain = 0
KDO2 260223Z 24003KT 21/18 A2989 RMK A01 T02100182  RH  084%=      5-min Rain = 0
KDO2 260224Z 24004KT 21/18 A2989 RMK A01 T02100182  RH  084%=      5-min Rain = 0
KDO2 260225Z 23003KT 21/18 A2989 RMK A01 T02100181  RH  084%=      5-min Rain = 0
KDO2 260226Z 23003KT 21/18 A2989 RMK A01 T02100181  RH  084%=      5-min Rain = 0
KDO2 260227Z 21004KT 21/18 A2989 RMK A01 T02100181  RH  084%=      5-min Rain = 0
KDO2 260228Z 21004KT 21/18 A2989 RMK A01 T02100181  RH  084%=      5-min Rain = 0
KDO2 260229Z 21004KT 21/18 A2989 RMK A01 T02100181  RH  084%=      5-min Rain = 0
KDO2 260230Z 21004KT 21/18 A2989 RMK A01 T02100182  RH  084%=      5-min Rain = 0
KDO2 260231Z 21004KT 21/18 A2989 RMK A01 T02100183  RH  084%=      5-min Rain = 0
KDO2 260232Z 21004KT 21/18 A2989 RMK A01 T02100183  RH  085%=      5-min Rain = 0
KDO2 260233Z 21004KT 21/18 A2989 RMK A01 T02100183  RH  085%=      5-min Rain = 0
KDO2 260234Z 21004KT 21/18 A2989 RMK A01 T02100183  RH  085%=      5-min Rain = 0
KDO2 260235Z 22004KT 21/18 A2989 RMK A01 T02100183  RH  085%=      5-min Rain = 0
KDO2 260236Z 22004KT 21/18 A2989 RMK A01 T02100183  RH  084%=      5-min Rain = 0
KDO2 260237Z 22004KT 21/18 A2989 RMK A01 T02110183  RH  084%=      5-min Rain = 0
KDO2 260238Z 23004KT 21/18 A2989 RMK A01 T02110183  RH  084%=      5-min Rain = 0
KDO2 260239Z 23004KT 21/18 A2989 RMK A01 T02120183  RH  083%=      5-min Rain = 0
KDO2 260240Z 23004KT 21/18 A2989 RMK A01 T02120182  RH  083%=      5-min Rain = 0
KDO2 260241Z 24004KT 21/18 A2989 RMK A01 T02120181  RH  083%=      5-min Rain = 0
KDO2 260242Z 24004KT 21/18 A2989 RMK A01 T02120181  RH  083%=      5-min Rain = 0
KDO2 260243Z 24004KT 21/18 A2989 RMK A01 T02110181  RH  082%=      5-min Rain = 0
KDO2 260244Z 24004KT 21/18 A2989 RMK A01 T02110180  RH  082%=      5-min Rain = 0
KDO2 260245Z 24004KT 21/18 A2989 RMK A01 T02110179  RH  082%=      5-min Rain = 0
KDO2 260246Z 25003KT 21/18 A2989 RMK A01 T02110178  RH  082%=      5-min Rain = 0
KDO2 260247Z 26003KT 21/18 A2989 RMK A01 T02110180  RH  082%=      5-min Rain = 0
KDO2 260248Z 26003KT 21/18 A2989 RMK A01 T02110181  RH  083%=      5-min Rain = 0
KDO2 260249Z 26003KT 21/18 A2989 RMK A01 T02110182  RH  083%=      5-min Rain = 0
KDO2 260250Z 26002KT 21/18 A2989 RMK A01 T02110183  RH  084%=      5-min Rain = 0
KDO2 260251Z 26002KT 21/18 A2989 RMK A01 T02110183  RH  084%=      5-min Rain = 0
KDO2 260252Z 27002KT 21/18 A2989 RMK A01 T02100183  RH  085%=      5-min Rain = 0
KDO2 260253Z 27002KT 21/18 A2989 RMK A01 T02100184  RH  085%=      5-min Rain = 0
KDO2 260254Z 26002KT 21/18 A2989 RMK A01 T02100183  RH  085%=      5-min Rain = 0
KDO2 260255Z 25002KT 21/18 A2989 RMK A01 T02090182  RH  084%=      5-min Rain = 0
KDO2 260256Z 24002KT 21/18 A2989 RMK A01 T02090181  RH  084%=      5-min Rain = 0
KDO2 260257Z 24003KT 21/18 A2989 RMK A01 T02090181  RH  084%=      5-min Rain = 0
KDO2 260258Z 24003KT 21/18 A299 RMK A01 T02090181  RH  084%=      5-min Rain = 0
KDO2 260259Z 24003KT 21/18 A299 RMK A01 T02090181  RH  084%=      5-min Rain = 0
KDO2 260300Z 24003KT 21/18 A299 RMK A01 T02080181  RH  085%=      5-min Rain = 0
KDO2 260301Z 24002KT 21/18 A299 RMK A01 T02090182  RH  085%=      5-min Rain = 0
KDO2 260302Z 25003KT 21/18 A299 RMK A01 T02080183  RH  085%=      5-min Rain = 0
KDO2 260303Z 26003KT 21/19 A299 RMK A01 T02080185  RH  086%=      5-min Rain = 0
KDO2 260304Z 25003KT 21/19 A299 RMK A01 T02080185  RH  086%=      5-min Rain = 0
KDO2 260305Z 24003KT 21/19 A299 RMK A01 T02080185  RH  087%=      5-min Rain = 0
KDO2 260306Z 24003KT 21/18 A299 RMK A01 T02080184  RH  086%=      5-min Rain = 0
KDO2 260307Z 24003KT 21/18 A299 RMK A01 T02070184  RH  086%=      5-min Rain = 0
KDO2 260308Z 24003KT 21/18 A2991 RMK A01 T02080181  RH  085%=      5-min Rain = 0
KDO2 260309Z 24004KT 21/18 A2991 RMK A01 T02080179  RH  084%=      5-min Rain = 0
KDO2 260310Z 25004KT 21/18 A2991 RMK A01 T02080178  RH  083%=      5-min Rain = 0
KDO2 260311Z 25004KT 21/18 A2991 RMK A01 T02090178  RH  083%=      5-min Rain = 0
KDO2 260312Z 25004KT 21/18 A2991 RMK A01 T02090179  RH  083%=      5-min Rain = 0
KDO2 260313Z 25004KT 21/18 A2991 RMK A01 T02090180  RH  084%=      5-min Rain = 0
KDO2 260314Z 26004KT 21/18 A2991 RMK A01 T02090181  RH  084%=      5-min Rain = 0
KDO2 260315Z 26004KT 21/18 A2991 RMK A01 T02090181  RH  084%=      5-min Rain = 0
KDO2 260316Z 26003KT 21/18 A2991 RMK A01 T02090182  RH  084%=      5-min Rain = 0
KDO2 260317Z 26004KT 21/18 A2991 RMK A01 T02080182  RH  085%=      5-min Rain = 0
KDO2 260318Z 26004KT 21/18 A2991 RMK A01 T02080182  RH  085%=      5-min Rain = 0
KDO2 260319Z 26004KT 21/18 A2991 RMK A01 T02080181  RH  084%=      5-min Rain = 0
KDO2 260320Z 27004KT 21/18 A2991 RMK A01 T02080180  RH  084%=      5-min Rain = 0
KDO2 260321Z 27003KT 21/18 A2991 RMK A01 T02080182  RH  085%=      5-min Rain = 0
KDO2 260322Z 28004KT 21/18 A2991 RMK A01 T02080182  RH  085%=      5-min Rain = 0
KDO2 260323Z 28004KT 21/18 A2992 RMK A01 T02080183  RH  085%=      5-min Rain = 0
KDO2 260324Z 28004KT 21/18 A2992 RMK A01 T02080183  RH  086%=      5-min Rain = 0
KDO2 260325Z 28004KT 21/18 A2992 RMK A01 T02080183  RH  086%=      5-min Rain = 0
KDO2 260326Z 28005KT 21/18 A2992 RMK A01 T02080182  RH  085%=      5-min Rain = 0
KDO2 260327Z 28005KT 21/18 A2992 RMK A01 T02080182  RH  085%=      5-min Rain = 0
KDO2 260328Z 28005KT 21/18 A2992 RMK A01 T02080182  RH  085%=      5-min Rain = 0
KDO2 260329Z 28005KT 21/18 A2992 RMK A01 T02080181  RH  085%=      5-min Rain = 0
KDO2 260330Z 28005KT 21/18 A2992 RMK A01 T02070180  RH  085%=      5-min Rain = 0
KDO2 260331Z 28005KT 21/18 A2992 RMK A01 T02070180  RH  085%=      5-min Rain = 0
KDO2 260332Z 28005KT 21/18 A2992 RMK A01 T02070180  RH  085%=      5-min Rain = 0
KDO2 260333Z 28005KT 21/18 A2992 RMK A01 T02070181  RH  085%=      5-min Rain = 0
KDO2 260334Z 28006KT 21/18 A2992 RMK A01 T02070181  RH  085%=      5-min Rain = 0
KDO2 260335Z 28006KT 21/18 A2992 RMK A01 T02070180  RH  085%=      5-min Rain = 0
KDO2 260336Z 28006KT 21/18 A2992 RMK A01 T02070180  RH  084%=      5-min Rain = 0
KDO2 260337Z 27005KT 21/18 A2992 RMK A01 T02070180  RH  085%=      5-min Rain = 0
KDO2 260338Z 27005KT 21/18 A2992 RMK A01 T02070181  RH  085%=      5-min Rain = 0
KDO2 260339Z 28005KT 21/18 A2992 RMK A01 T02070180  RH  085%=      5-min Rain = 0
KDO2 260340Z 28005KT 21/18 A2992 RMK A01 T02070180  RH  085%=      5-min Rain = 0
KDO2 260341Z 27005KT 21/18 A2992 RMK A01 T02060180  RH  085%=      5-min Rain = 0
KDO2 260342Z 27004KT 21/18 A2992 RMK A01 T02060179  RH  084%=      5-min Rain = 0
KDO2 260343Z 27005KT 21/18 A2992 RMK A01 T02060178  RH  084%=      5-min Rain = 0
KDO2 260344Z 27005KT 21/18 A2992 RMK A01 T02060177  RH  083%=      5-min Rain = 0
KDO2 260345Z 27005KT 21/18 A2992 RMK A01 T02060176  RH  083%=      5-min Rain = 0
KDO2 260346Z 27005KT 21/18 A2992 RMK A01 T02060175  RH  083%=      5-min Rain = 0
KDO2 260347Z 26005KT 21/18 A2992 RMK A01 T02060176  RH  083%=      5-min Rain = 0
KDO2 260348Z 26005KT 21/18 A2992 RMK A01 T02060177  RH  083%=      5-min Rain = 0
KDO2 260349Z 27006KT 21/18 A2992 RMK A01 T02060176  RH  083%=      5-min Rain = 0
KDO2 260350Z 27006KT 21/18 A2992 RMK A01 T02060176  RH  083%=      5-min Rain = 0
KDO2 260351Z 27006KT 21/18 A2992 RMK A01 T02060175  RH  082%=      5-min Rain = 0
KDO2 260352Z 27006KT 21/18 A2992 RMK A01 T02060175  RH  083%=      5-min Rain = 0
KDO2 260353Z 26006KT 21/18 A2992 RMK A01 T02060176  RH  083%=      5-min Rain = 0
KDO2 260354Z 26006KT 21/18 A2992 RMK A01 T02060176  RH  083%=      5-min Rain = 0
KDO2 260355Z 26006KT 21/18 A2992 RMK A01 T02060176  RH  083%=      5-min Rain = 0
KDO2 260356Z 26006KT 21/18 A2993 RMK A01 T02060176  RH  083%=      5-min Rain = 0
KDO2 260357Z 26006KT 21/18 A2993 RMK A01 T02070175  RH  082%=      5-min Rain = 0
KDO2 260358Z 25006KT 21/18 A2993 RMK A01 T02080175  RH  082%=      5-min Rain = 0
KDO2 260359Z 25006KT 21/18 A2993 RMK A01 T02080176  RH  082%=      5-min Rain = 0
KDO2 260400Z 25006KT 21/18 A2992 RMK A01 T02080175  RH  081%=      5-min Rain = 0
KDO2 260401Z 24006KT 21/18 A2992 RMK A01 T02080175  RH  081%=      5-min Rain = 0
KDO2 260402Z 24006KT 21/18 A2992 RMK A01 T02080175  RH  081%=      5-min Rain = 0
KDO2 260403Z 23007KT 21/18 A2992 RMK A01 T02080176  RH  082%=      5-min Rain = 0
KDO2 260404Z 23007KT 21/18 A2992 RMK A01 T02090175  RH  081%=      5-min Rain = 0
KDO2 260405Z 23006KT 21/17 A2992 RMK A01 T02090174  RH  081%=      5-min Rain = 0
KDO2 260406Z 23006KT 21/18 A2992 RMK A01 T02090176  RH  081%=      5-min Rain = 0
KDO2 260407Z 23006KT 21/18 A2992 RMK A01 T02090176  RH  081%=      5-min Rain = 0
KDO2 260408Z 24005KT 21/18 A2992 RMK A01 T02080175  RH  081%=      5-min Rain = 0
KDO2 260409Z 25005KT 21/18 A2992 RMK A01 T02080176  RH  082%=      5-min Rain = 0
KDO2 260410Z 24005KT 21/18 A2992 RMK A01 T02070176  RH  082%=      5-min Rain = 0
KDO2 260411Z 24005KT 21/18 A2992 RMK A01 T02070175  RH  082%=      5-min Rain = 0
KDO2 260412Z 24005KT 21/18 A2992 RMK A01 T02070175  RH  082%=      5-min Rain = 0
KDO2 260413Z 24005KT 21/18 A2992 RMK A01 T02070176  RH  082%=      5-min Rain = 0
KDO2 260414Z 24005KT 21/18 A2992 RMK A01 T02060175  RH  082%=      5-min Rain = 0
KDO2 260415Z 23004KT 21/18 A2992 RMK A01 T02060175  RH  082%=      5-min Rain = 0
KDO2 260416Z 23004KT 21/18 A2992 RMK A01 T02060175  RH  082%=      5-min Rain = 0
KDO2 260417Z 23004KT 21/18 A2992 RMK A01 T02060175  RH  082%=      5-min Rain = 0
KDO2 260418Z 23004KT 21/18 A2992 RMK A01 T02060175  RH  082%=      5-min Rain = 0
KDO2 260419Z 23004KT 21/18 A2992 RMK A01 T02060175  RH  083%=      5-min Rain = 0
KDO2 260420Z 23004KT 21/18 A2992 RMK A01 T02060175  RH  083%=      5-min Rain = 0
KDO2 260421Z 23004KT 21/18 A2992 RMK A01 T02050176  RH  083%=      5-min Rain = 0
KDO2 260422Z 23004KT 21/18 A2992 RMK A01 T02050175  RH  083%=      5-min Rain = 0
KDO2 260423Z 22004KT 21/18 A2992 RMK A01 T02050175  RH  083%=      5-min Rain = 0
KDO2 260424Z 22004KT 20/18 A2992 RMK A01 T02040176  RH  084%=      5-min Rain = 0
KDO2 260425Z 22003KT 20/18 A2992 RMK A01 T02040176  RH  084%=      5-min Rain = 0
KDO2 260426Z 22003KT 20/18 A2992 RMK A01 T02030176  RH  084%=      5-min Rain = 0
KDO2 260427Z 21003KT 20/18 A2992 RMK A01 T02030177  RH  085%=      5-min Rain = 0
KDO2 260428Z 20003KT 20/18 A2993 RMK A01 T02030177  RH  085%=      5-min Rain = 0
KDO2 260429Z 20003KT 20/18 A2993 RMK A01 T02030178  RH  086%=      5-min Rain = 0
KDO2 260430Z 18003KT 20/18 A2993 RMK A01 T02020178  RH  086%=      5-min Rain = 0
KDO2 260431Z 20003KT 20/18 A2993 RMK A01 T02020179  RH  087%=      5-min Rain = 0
KDO2 260432Z 21003KT 20/18 A2993 RMK A01 T02010179  RH  087%=      5-min Rain = 0
KDO2 260433Z 22003KT 20/18 A2992 RMK A01 T02010179  RH  087%=      5-min Rain = 0
KDO2 260434Z 24003KT 20/18 A2992 RMK A01 T02010179  RH  087%=      5-min Rain = 0
KDO2 260435Z 25003KT 20/18 A2992 RMK A01 T02010179  RH  087%=      5-min Rain = 0
KDO2 260436Z 27003KT 20/18 A2993 RMK A01 T02010179  RH  087%=      5-min Rain = 0
KDO2 260437Z 28003KT 20/18 A2993 RMK A01 T02010179  RH  087%=      5-min Rain = 0
KDO2 260438Z 28003KT 20/18 A2993 RMK A01 T02010179  RH  087%=      5-min Rain = 0
KDO2 260439Z 28004KT 20/18 A2993 RMK A01 T02010177  RH  086%=      5-min Rain = 0
KDO2 260440Z 27004KT 20/18 A2993 RMK A01 T02010176  RH  086%=      5-min Rain = 0
KDO2 260441Z 28004KT 20/18 A2993 RMK A01 T02010176  RH  086%=      5-min Rain = 0
KDO2 260442Z 29004KT 20/18 A2993 RMK A01 T02010177  RH  086%=      5-min Rain = 0
KDO2 260443Z 29003KT 20/18 A2992 RMK A01 T02010176  RH  086%=      5-min Rain = 0
KDO2 260444Z 29003KT 20/18 A2992 RMK A01 T02000176  RH  086%=      5-min Rain = 0
KDO2 260445Z 28003KT 20/18 A2992 RMK A01 T02000176  RH  086%=      5-min Rain = 0
KDO2 260446Z 28002KT 20/18 A2992 RMK A01 T02000176  RH  086%=      5-min Rain = 0
KDO2 260447Z 27003KT 20/18 A2992 RMK A01 T02000176  RH  086%=      5-min Rain = 0
KDO2 260448Z 27002KT 20/18 A2992 RMK A01 T02000176  RH  086%=      5-min Rain = 0
KDO2 260449Z 27003KT 20/18 A2992 RMK A01 T02000175  RH  086%=      5-min Rain = 0
KDO2 260450Z 27003KT 20/17 A2992 RMK A01 T02000174  RH  085%=      5-min Rain = 0
KDO2 260451Z 28003KT 20/17 A2992 RMK A01 T02000174  RH  085%=      5-min Rain = 0
KDO2 260452Z 28003KT 20/17 A2992 RMK A01 T02000174  RH  085%=      5-min Rain = 0
KDO2 260453Z 28004KT 20/17 A2992 RMK A01 T02010174  RH  085%=      5-min Rain = 0
KDO2 260454Z 29003KT 20/18 A2992 RMK A01 T02010175  RH  085%=      5-min Rain = 0
KDO2 260455Z 29004KT 20/18 A2992 RMK A01 T02010176  RH  085%=      5-min Rain = 0
KDO2 260456Z 29004KT 20/18 A2992 RMK A01 T02010176  RH  085%=      5-min Rain = 0
KDO2 260457Z 30005KT 20/18 A2992 RMK A01 T02010176  RH  085%=      5-min Rain = 0
KDO2 260458Z 31005KT 20/18 A2992 RMK A01 T02010177  RH  086%=      5-min Rain = 0
KDO2 260459Z 30005KT 20/18 A2992 RMK A01 T02010176  RH  086%=      5-min Rain = 0

Page generated in 0.4939 seconds.